Observation data for Umbarger on 11/17/2019      Previous  Date       Current Mesonet Observations  Soil Data  Daily Summary Page  Observations in Plain Language
KUM1 170600Z 35010KT 09/01 A30 RMK A01 T00910010  RH  057%=      5-min Rain = 0
KUM1 170601Z 35010KT 09/01 A30 RMK A01 T00910009  RH  057%=      5-min Rain = 0
KUM1 170602Z 34010KT 09/01 A30 RMK A01 T00910009  RH  057%=      5-min Rain = 0
KUM1 170603Z 34010KT 09/01 A30 RMK A01 T00900009  RH  057%=      5-min Rain = 0
KUM1 170604Z 35011KT 09/01 A30 RMK A01 T00890009  RH  057%=      5-min Rain = 0
KUM1 170605Z 34011KT 09/01 A30 RMK A01 T00890009  RH  057%=      5-min Rain = 0
KUM1 170606Z 34012KT 09/01 A30 RMK A01 T00890009  RH  058%=      5-min Rain = 0
KUM1 170607Z 34013KT 09/01 A30 RMK A01 T00890009  RH  057%=      5-min Rain = 0
KUM1 170608Z 34012KT 09/01 A30 RMK A01 T00900010  RH  057%=      5-min Rain = 0
KUM1 170609Z 35012KT 09/01 A30 RMK A01 T00900010  RH  057%=      5-min Rain = 0
KUM1 170610Z 34011KT 09/01 A30 RMK A01 T00910010  RH  057%=      5-min Rain = 0
KUM1 170611Z 34011KT 09/01 A30 RMK A01 T00910010  RH  057%=      5-min Rain = 0
KUM1 170612Z 34011KT 09/01 A30 RMK A01 T00900010  RH  057%=      5-min Rain = 0
KUM1 170613Z 35011KT 09/01 A30 RMK A01 T00900011  RH  057%=      5-min Rain = 0
KUM1 170614Z 35012KT 09/01 A30 RMK A01 T00890010  RH  058%=      5-min Rain = 0
KUM1 170615Z 35011KT 09/01 A30 RMK A01 T00890010  RH  058%=      5-min Rain = 0
KUM1 170616Z 35012KT 09/01 A30 RMK A01 T00890011  RH  058%=      5-min Rain = 0
KUM1 170617Z 35012KT 09/01 A30 RMK A01 T00890011  RH  058%=      5-min Rain = 0
KUM1 170618Z 35013KT 09/01 A3001 RMK A01 T00900012  RH  058%=      5-min Rain = 0
KUM1 170619Z 35015KT 09/01 A3001 RMK A01 T00920012  RH  058%=      5-min Rain = 0
KUM1 170620Z 35014KT 09/01 A3001 RMK A01 T00940012  RH  057%=      5-min Rain = 0
KUM1 170621Z 36014KT 10/01 A30 RMK A01 T00960012  RH  056%=      5-min Rain = 0
KUM1 170622Z 36014KT 10/01 A30 RMK A01 T00980012  RH  055%=      5-min Rain = 0
KUM1 170623Z 36016KT 10/01 A30 RMK A01 T01000012  RH  054%=      5-min Rain = 0
KUM1 170624Z 00017KT 10/01 A30 RMK A01 T01010011  RH  053%=      5-min Rain = 0
KUM1 170625Z 00016KT 10/01 A30 RMK A01 T01030010  RH  053%=      5-min Rain = 0
KUM1 170626Z 36017KT 10/01 A30 RMK A01 T01040010  RH  052%=      5-min Rain = 0
KUM1 170627Z 00017G22KT 11/01 A30 RMK A01 T01050009  RH  052%=      5-min Rain = 0
KUM1 170628Z 01016KT 11/01 A3001 RMK A01 T01060008  RH  051%=      5-min Rain = 0
KUM1 170629Z 00018KT 11/01 A3001 RMK A01 T01060008  RH  051%=      5-min Rain = 0
KUM1 170630Z 00019G24KT 11/01 A3001 RMK A01 T01060008  RH  051%=      5-min Rain = 0
KUM1 170631Z 00019KT 11/01 A3001 RMK A01 T01060007  RH  050%=      5-min Rain = 0
KUM1 170632Z 00021G26KT 11/01 A3001 RMK A01 T01060007  RH  050%=      5-min Rain = 0
KUM1 170633Z 00020KT 11/01 A3001 RMK A01 T01060006  RH  050%=      5-min Rain = 0
KUM1 170634Z 36019KT 11/01 A3001 RMK A01 T01060006  RH  050%=      5-min Rain = 0
KUM1 170635Z 36019KT 11/01 A3001 RMK A01 T01060006  RH  050%=      5-min Rain = 0
KUM1 170636Z 00019G24KT 11/01 A3001 RMK A01 T01060005  RH  050%=      5-min Rain = 0
KUM1 170637Z 00020KT 11/01 A3002 RMK A01 T01060005  RH  049%=      5-min Rain = 0
KUM1 170638Z 00019KT 11/00 A3002 RMK A01 T01060004  RH  049%=      5-min Rain = 0
KUM1 170639Z 00020KT 11/00 A3002 RMK A01 T01060003  RH  049%=      5-min Rain = 0
KUM1 170640Z 00020KT 11/00 A3002 RMK A01 T01060002  RH  049%=      5-min Rain = 0
KUM1 170641Z 00020KT 11/00 A3002 RMK A01 T01060001  RH  048%=      5-min Rain = 0
KUM1 170642Z 00019KT 11/00 A3002 RMK A01 T01060001  RH  048%=      5-min Rain = 0
KUM1 170643Z 01020KT 11/M00 A3002 RMK A01 T01061001  RH  047%=      5-min Rain = 0
KUM1 170644Z 01021KT 11/M00 A3002 RMK A01 T01071002  RH  047%=      5-min Rain = 0
KUM1 170645Z 01021KT 11/M00 A3002 RMK A01 T01071003  RH  046%=      5-min Rain = 0
KUM1 170646Z 01024KT 11/M01 A3002 RMK A01 T01081005  RH  046%=      5-min Rain = 0
KUM1 170647Z 01018KT 11/M01 A3002 RMK A01 T01091005  RH  045%=      5-min Rain = 0
KUM1 170648Z 01019KT 11/M01 A3002 RMK A01 T01081005  RH  046%=      5-min Rain = 0
KUM1 170649Z 00019KT 11/M01 A3002 RMK A01 T01071005  RH  046%=      5-min Rain = 0
KUM1 170650Z 00019KT 11/M01 A3002 RMK A01 T01061006  RH  046%=      5-min Rain = 0
KUM1 170651Z 01021KT 11/M01 A3002 RMK A01 T01061007  RH  045%=      5-min Rain = 0
KUM1 170652Z 01020KT 11/M01 A3003 RMK A01 T01071008  RH  045%=      5-min Rain = 0
KUM1 170653Z 01018KT 11/M01 A3003 RMK A01 T01081008  RH  045%=      5-min Rain = 0
KUM1 170654Z 01018KT 11/M01 A3003 RMK A01 T01081008  RH  044%=      5-min Rain = 0
KUM1 170655Z 01020KT 11/M01 A3003 RMK A01 T01071009  RH  045%=      5-min Rain = 0
KUM1 170656Z 01019KT 11/M01 A3003 RMK A01 T01071010  RH  044%=      5-min Rain = 0
KUM1 170657Z 01018G23KT 11/M01 A3003 RMK A01 T01071010  RH  044%=      5-min Rain = 0
KUM1 170658Z 00018KT 11/M01 A3003 RMK A01 T01071010  RH  044%=      5-min Rain = 0
KUM1 170659Z 00019KT 11/M01 A3003 RMK A01 T01061011  RH  044%=      5-min Rain = 0
KUM1 170700Z 01017KT 11/M01 A3003 RMK A01 T01061011  RH  044%=      5-min Rain = 0
KUM1 170701Z 00016G21KT 10/M01 A3003 RMK A01 T01041011  RH  045%=      5-min Rain = 0
KUM1 170702Z 01016KT 10/M01 A3003 RMK A01 T01041011  RH  045%=      5-min Rain = 0
KUM1 170703Z 00017KT 10/M01 A3003 RMK A01 T01031011  RH  045%=      5-min Rain = 0
KUM1 170704Z 00017KT 10/M01 A3003 RMK A01 T01031011  RH  045%=      5-min Rain = 0
KUM1 170705Z 00016KT 10/M01 A3003 RMK A01 T01021012  RH  045%=      5-min Rain = 0
KUM1 170706Z 00016KT 10/M01 A3003 RMK A01 T01011012  RH  045%=      5-min Rain = 0
KUM1 170707Z 00017KT 10/M01 A3003 RMK A01 T01011012  RH  045%=      5-min Rain = 0
KUM1 170708Z 00017KT 10/M01 A3003 RMK A01 T01011012  RH  045%=      5-min Rain = 0
KUM1 170709Z 00017KT 10/M01 A3003 RMK A01 T01011013  RH  045%=      5-min Rain = 0
KUM1 170710Z 36016KT 10/M01 A3004 RMK A01 T01001013  RH  045%=      5-min Rain = 0
KUM1 170711Z 36016KT 10/M01 A3004 RMK A01 T00991013  RH  045%=      5-min Rain = 0
KUM1 170712Z 00016KT 10/M01 A3004 RMK A01 T00981013  RH  046%=      5-min Rain = 0
KUM1 170713Z 36015KT 10/M01 A3004 RMK A01 T00981013  RH  046%=      5-min Rain = 0
KUM1 170714Z 36016KT 10/M01 A3004 RMK A01 T00961012  RH  047%=      5-min Rain = 0
KUM1 170715Z 36016KT 10/M01 A3004 RMK A01 T00961012  RH  047%=      5-min Rain = 0
KUM1 170716Z 36016KT 10/M01 A3004 RMK A01 T00951012  RH  047%=      5-min Rain = 0
KUM1 170717Z 36016KT 09/M01 A3004 RMK A01 T00941012  RH  048%=      5-min Rain = 0
KUM1 170718Z 36016KT 09/M01 A3004 RMK A01 T00941011  RH  048%=      5-min Rain = 0
KUM1 170719Z 36016KT 09/M01 A3004 RMK A01 T00931011  RH  048%=      5-min Rain = 0
KUM1 170720Z 00016KT 09/M01 A3004 RMK A01 T00931012  RH  048%=      5-min Rain = 0
KUM1 170721Z 36018KT 09/M01 A3004 RMK A01 T00931012  RH  048%=      5-min Rain = 0
KUM1 170722Z 00017KT 09/M01 A3004 RMK A01 T00931013  RH  048%=      5-min Rain = 0
KUM1 170723Z 36017KT 09/M01 A3004 RMK A01 T00921013  RH  048%=      5-min Rain = 0
KUM1 170724Z 00017KT 09/M01 A3004 RMK A01 T00921014  RH  048%=      5-min Rain = 0
KUM1 170725Z 00017KT 09/M01 A3004 RMK A01 T00921014  RH  047%=      5-min Rain = 0
KUM1 170726Z 00017KT 09/M02 A3004 RMK A01 T00921015  RH  047%=      5-min Rain = 0
KUM1 170727Z 00022KT 09/M02 A3004 RMK A01 T00931016  RH  047%=      5-min Rain = 0
KUM1 170728Z 01022G28KT 10/M02 A3004 RMK A01 T00951017  RH  045%=      5-min Rain = 0
KUM1 170729Z 00018KT 10/M02 A3004 RMK A01 T00971017  RH  045%=      5-min Rain = 0
KUM1 170730Z 01020KT 10/M02 A3004 RMK A01 T00961018  RH  045%=      5-min Rain = 0
KUM1 170731Z 00019KT 10/M02 A3004 RMK A01 T00961018  RH  045%=      5-min Rain = 0
KUM1 170732Z 01019KT 10/M02 A3005 RMK A01 T00961018  RH  045%=      5-min Rain = 0
KUM1 170733Z 00017KT 10/M02 A3005 RMK A01 T00961018  RH  045%=      5-min Rain = 0
KUM1 170734Z 00017KT 10/M02 A3005 RMK A01 T00951019  RH  045%=      5-min Rain = 0
KUM1 170735Z 00017KT 10/M02 A3005 RMK A01 T00951019  RH  045%=      5-min Rain = 0
KUM1 170736Z 00018KT 09/M02 A3005 RMK A01 T00941019  RH  045%=      5-min Rain = 0
KUM1 170737Z 00019KT 09/M02 A3005 RMK A01 T00941019  RH  045%=      5-min Rain = 0
KUM1 170738Z 00020KT 09/M02 A3005 RMK A01 T00941019  RH  045%=      5-min Rain = 0
KUM1 170739Z 00021KT 10/M02 A3005 RMK A01 T00951020  RH  045%=      5-min Rain = 0
KUM1 170740Z 00019G24KT 10/M02 A3005 RMK A01 T00961020  RH  044%=      5-min Rain = 0
KUM1 170741Z 00020KT 10/M02 A3005 RMK A01 T00951020  RH  044%=      5-min Rain = 0
KUM1 170742Z 00021KT 10/M02 A3005 RMK A01 T00951021  RH  044%=      5-min Rain = 0
KUM1 170743Z 01024G29KT 10/M02 A3006 RMK A01 T00971021  RH  044%=      5-min Rain = 0
KUM1 170744Z 00020G25KT 10/M02 A3006 RMK A01 T00991020  RH  043%=      5-min Rain = 0
KUM1 170745Z 00023G28KT 10/M02 A3005 RMK A01 T00981021  RH  043%=      5-min Rain = 0
KUM1 170746Z 01021KT 10/M02 A3006 RMK A01 T00991021  RH  043%=      5-min Rain = 0
KUM1 170747Z 00023KT 10/M02 A3006 RMK A01 T00991021  RH  043%=      5-min Rain = 0
KUM1 170748Z 00023KT 10/M02 A3006 RMK A01 T00991021  RH  043%=      5-min Rain = 0
KUM1 170749Z 01022KT 10/M02 A3006 RMK A01 T00991021  RH  043%=      5-min Rain = 0
KUM1 170750Z 01024KT 10/M02 A3006 RMK A01 T00991020  RH  043%=      5-min Rain = 0
KUM1 170751Z 00020G26KT 10/M02 A3006 RMK A01 T01001021  RH  043%=      5-min Rain = 0
KUM1 170752Z 01020G26KT 10/M02 A3006 RMK A01 T00991020  RH  043%=      5-min Rain = 0
KUM1 170753Z 01021G26KT 10/M02 A3006 RMK A01 T00991020  RH  043%=      5-min Rain = 0
KUM1 170754Z 01022KT 10/M02 A3006 RMK A01 T00991020  RH  043%=      5-min Rain = 0
KUM1 170755Z 00025G30KT 10/M02 A3006 RMK A01 T00991020  RH  043%=      5-min Rain = 0
KUM1 170756Z 01025G32KT 10/M02 A3006 RMK A01 T00991020  RH  043%=      5-min Rain = 0
KUM1 170757Z 01022KT 10/M02 A3006 RMK A01 T01001020  RH  043%=      5-min Rain = 0
KUM1 170758Z 01023KT 10/M02 A3006 RMK A01 T00991019  RH  044%=      5-min Rain = 0
KUM1 170759Z 00021KT 10/M02 A3006 RMK A01 T00981019  RH  044%=      5-min Rain = 0
KUM1 170800Z 01022G27KT 10/M02 A3006 RMK A01 T00971019  RH  044%=      5-min Rain = 0
KUM1 170801Z 01022KT 10/M02 A3007 RMK A01 T00971019  RH  044%=      5-min Rain = 0
KUM1 170802Z 00023G29KT 10/M02 A3006 RMK A01 T00971018  RH  044%=      5-min Rain = 0
KUM1 170803Z 01023KT 10/M02 A3006 RMK A01 T00971018  RH  045%=      5-min Rain = 0
KUM1 170804Z 01023KT 10/M02 A3006 RMK A01 T00971018  RH  045%=      5-min Rain = 0
KUM1 170805Z 01019KT 10/M02 A3006 RMK A01 T00961018  RH  045%=      5-min Rain = 0
KUM1 170806Z 01020KT 10/M02 A3006 RMK A01 T00951018  RH  045%=      5-min Rain = 0
KUM1 170807Z 01021KT 10/M02 A3006 RMK A01 T00951018  RH  045%=      5-min Rain = 0
KUM1 170808Z 02021KT 10/M02 A3006 RMK A01 T00951018  RH  045%=      5-min Rain = 0
KUM1 170809Z 02017KT 09/M02 A3006 RMK A01 T00941017  RH  046%=      5-min Rain = 0
KUM1 170810Z 01022KT 09/M02 A3006 RMK A01 T00931018  RH  046%=      5-min Rain = 0
KUM1 170811Z 01023KT 09/M02 A3007 RMK A01 T00931018  RH  046%=      5-min Rain = 0
KUM1 170812Z 01022KT 09/M02 A3007 RMK A01 T00931017  RH  046%=      5-min Rain = 0
KUM1 170813Z 01018KT 09/M02 A3007 RMK A01 T00921017  RH  046%=      5-min Rain = 0
KUM1 170814Z 01019KT 09/M02 A3007 RMK A01 T00911017  RH  047%=      5-min Rain = 0
KUM1 170815Z 01019KT 09/M02 A3007 RMK A01 T00901017  RH  047%=      5-min Rain = 0
KUM1 170816Z 01020KT 09/M02 A3007 RMK A01 T00901017  RH  047%=      5-min Rain = 0
KUM1 170817Z 01019KT 09/M02 A3007 RMK A01 T00891017  RH  047%=      5-min Rain = 0
KUM1 170818Z 01021KT 09/M02 A3008 RMK A01 T00891016  RH  048%=      5-min Rain = 0
KUM1 170819Z 01022KT 09/M02 A3008 RMK A01 T00881016  RH  048%=      5-min Rain = 0
KUM1 170820Z 01024KT 09/M02 A3008 RMK A01 T00881016  RH  048%=      5-min Rain = 0
KUM1 170821Z 01022G27KT 09/M02 A3008 RMK A01 T00881016  RH  048%=      5-min Rain = 0
KUM1 170822Z 00023G28KT 09/M02 A3008 RMK A01 T00881016  RH  048%=      5-min Rain = 0
KUM1 170823Z 01023KT 09/M02 A3008 RMK A01 T00881016  RH  048%=      5-min Rain = 0
KUM1 170824Z 01020G25KT 09/M02 A3008 RMK A01 T00871016  RH  048%=      5-min Rain = 0
KUM1 170825Z 01021G27KT 09/M02 A3008 RMK A01 T00871015  RH  049%=      5-min Rain = 0
KUM1 170826Z 01023KT 09/M02 A3008 RMK A01 T00861015  RH  049%=      5-min Rain = 0
KUM1 170827Z 01022KT 09/M01 A3008 RMK A01 T00861014  RH  049%=      5-min Rain = 0
KUM1 170828Z 00023KT 09/M01 A3008 RMK A01 T00861014  RH  050%=      5-min Rain = 0
KUM1 170829Z 01023KT 09/M01 A3008 RMK A01 T00851014  RH  050%=      5-min Rain = 0
KUM1 170830Z 01022KT 09/M01 A3008 RMK A01 T00851013  RH  050%=      5-min Rain = 0
KUM1 170831Z 01024G30KT 08/M01 A3008 RMK A01 T00841013  RH  050%=      5-min Rain = 0
KUM1 170832Z 01024KT 08/M01 A3008 RMK A01 T00841013  RH  051%=      5-min Rain = 0
KUM1 170833Z 01024KT 08/M01 A3009 RMK A01 T00841012  RH  051%=      5-min Rain = 0
KUM1 170834Z 01024KT 08/M01 A3009 RMK A01 T00831012  RH  051%=      5-min Rain = 0
KUM1 170835Z 01022G27KT 08/M01 A3009 RMK A01 T00831011  RH  051%=      5-min Rain = 0
KUM1 170836Z 01021KT 08/M01 A3009 RMK A01 T00821011  RH  052%=      5-min Rain = 0
KUM1 170837Z 01020KT 08/M01 A3009 RMK A01 T00821011  RH  052%=      5-min Rain = 0
KUM1 170838Z 01022G28KT 08/M01 A3009 RMK A01 T00811011  RH  052%=      5-min Rain = 0
KUM1 170839Z 01023KT 08/M01 A3009 RMK A01 T00811011  RH  052%=      5-min Rain = 0
KUM1 170840Z 01022KT 08/M01 A3009 RMK A01 T00811010  RH  053%=      5-min Rain = 0
KUM1 170841Z 01021KT 08/M01 A3009 RMK A01 T00801011  RH  053%=      5-min Rain = 0
KUM1 170842Z 01019KT 08/M01 A3009 RMK A01 T00801010  RH  053%=      5-min Rain = 0
KUM1 170843Z 01019G26KT 08/M01 A3009 RMK A01 T00791011  RH  053%=      5-min Rain = 0
KUM1 170844Z 01024KT 08/M01 A301 RMK A01 T00781010  RH  053%=      5-min Rain = 0
KUM1 170845Z 01021KT 08/M01 A301 RMK A01 T00791010  RH  053%=      5-min Rain = 0
KUM1 170846Z 01023G29KT 08/M01 A301 RMK A01 T00791010  RH  053%=      5-min Rain = 0
KUM1 170847Z 01022KT 08/M01 A301 RMK A01 T00781010  RH  053%=      5-min Rain = 0
KUM1 170848Z 01021KT 08/M01 A301 RMK A01 T00781010  RH  054%=      5-min Rain = 0
KUM1 170849Z 01022KT 08/M01 A301 RMK A01 T00781010  RH  054%=      5-min Rain = 0
KUM1 170850Z 01020G25KT 08/M01 A3009 RMK A01 T00781010  RH  054%=      5-min Rain = 0
KUM1 170851Z 01020KT 08/M01 A3009 RMK A01 T00781010  RH  054%=      5-min Rain = 0
KUM1 170852Z 02020KT 08/M01 A3009 RMK A01 T00771010  RH  054%=      5-min Rain = 0
KUM1 170853Z 02017KT 08/M01 A3009 RMK A01 T00761011  RH  054%=      5-min Rain = 0
KUM1 170854Z 01020KT 08/M01 A3009 RMK A01 T00761010  RH  055%=      5-min Rain = 0
KUM1 170855Z 01021KT 08/M01 A3009 RMK A01 T00761010  RH  055%=      5-min Rain = 0
KUM1 170856Z 01021KT 08/M01 A3009 RMK A01 T00761010  RH  055%=      5-min Rain = 0
KUM1 170857Z 02021KT 08/M01 A3009 RMK A01 T00751010  RH  055%=      5-min Rain = 0
KUM1 170858Z 01018KT 08/M01 A3009 RMK A01 T00761009  RH  055%=      5-min Rain = 0
KUM1 170859Z 02020KT 08/M01 A3009 RMK A01 T00751010  RH  055%=      5-min Rain = 0
KUM1 170900Z 02021KT 08/M01 A3009 RMK A01 T00751009  RH  055%=      5-min Rain = 0
KUM1 170901Z 01021G26KT 07/M01 A3009 RMK A01 T00741010  RH  055%=      5-min Rain = 0
KUM1 170902Z 01021KT 07/M01 A3009 RMK A01 T00741009  RH  055%=      5-min Rain = 0
KUM1 170903Z 01021KT 07/M01 A3009 RMK A01 T00741010  RH  055%=      5-min Rain = 0
KUM1 170904Z 01019G24KT 07/M01 A3009 RMK A01 T00741009  RH  056%=      5-min Rain = 0
KUM1 170905Z 01019G25KT 07/M01 A3009 RMK A01 T00731010  RH  056%=      5-min Rain = 0
KUM1 170906Z 02020KT 07/M01 A3009 RMK A01 T00721010  RH  056%=      5-min Rain = 0
KUM1 170907Z 01021KT 07/M01 A3009 RMK A01 T00721010  RH  056%=      5-min Rain = 0
KUM1 170908Z 01021KT 07/M01 A3009 RMK A01 T00731009  RH  056%=      5-min Rain = 0
KUM1 170909Z 01020KT 07/M01 A3009 RMK A01 T00721009  RH  056%=      5-min Rain = 0
KUM1 170910Z 01019KT 07/M01 A3009 RMK A01 T00721009  RH  056%=      5-min Rain = 0
KUM1 170911Z 01017KT 07/M01 A3009 RMK A01 T00711009  RH  057%=      5-min Rain = 0
KUM1 170912Z 01021KT 07/M01 A3009 RMK A01 T00701009  RH  057%=      5-min Rain = 0
KUM1 170913Z 01019KT 07/M01 A3009 RMK A01 T00701009  RH  057%=      5-min Rain = 0
KUM1 170914Z 01018G23KT 07/M01 A3009 RMK A01 T00701009  RH  057%=      5-min Rain = 0
KUM1 170915Z 01020KT 07/M01 A3009 RMK A01 T00701009  RH  057%=      5-min Rain = 0
KUM1 170916Z 01021G26KT 07/M01 A3009 RMK A01 T00701008  RH  058%=      5-min Rain = 0
KUM1 170917Z 01021KT 07/M01 A3009 RMK A01 T00701008  RH  058%=      5-min Rain = 0
KUM1 170918Z 01019KT 07/M01 A3009 RMK A01 T00701008  RH  058%=      5-min Rain = 0
KUM1 170919Z 01020G25KT 07/M01 A3009 RMK A01 T00691008  RH  058%=      5-min Rain = 0
KUM1 170920Z 01021KT 07/M01 A3009 RMK A01 T00691008  RH  058%=      5-min Rain = 0
KUM1 170921Z 01020KT 07/M01 A3009 RMK A01 T00691008  RH  058%=      5-min Rain = 0
KUM1 170922Z 01021KT 07/M01 A3009 RMK A01 T00691007  RH  058%=      5-min Rain = 0
KUM1 170923Z 01020G25KT 07/M01 A301 RMK A01 T00691007  RH  058%=      5-min Rain = 0
KUM1 170924Z 01021KT 07/M01 A301 RMK A01 T00681007  RH  059%=      5-min Rain = 0
KUM1 170925Z 01019KT 07/M01 A301 RMK A01 T00681007  RH  059%=      5-min Rain = 0
KUM1 170926Z 01021KT 07/M01 A301 RMK A01 T00681007  RH  059%=      5-min Rain = 0
KUM1 170927Z 01023KT 07/M01 A301 RMK A01 T00681006  RH  059%=      5-min Rain = 0
KUM1 170928Z 01021KT 07/M01 A301 RMK A01 T00681006  RH  059%=      5-min Rain = 0
KUM1 170929Z 01020KT 07/M01 A301 RMK A01 T00681006  RH  059%=      5-min Rain = 0
KUM1 170930Z 01020G25KT 07/M01 A301 RMK A01 T00671006  RH  060%=      5-min Rain = 0
KUM1 170931Z 01022KT 07/M01 A301 RMK A01 T00671005  RH  060%=      5-min Rain = 0
KUM1 170932Z 01019KT 07/M01 A301 RMK A01 T00671005  RH  060%=      5-min Rain = 0
KUM1 170933Z 01020KT 07/M01 A301 RMK A01 T00661005  RH  060%=      5-min Rain = 0
KUM1 170934Z 01019KT 07/M01 A301 RMK A01 T00661005  RH  060%=      5-min Rain = 0
KUM1 170935Z 01019G25KT 07/M01 A301 RMK A01 T00651005  RH  061%=      5-min Rain = 0
KUM1 170936Z 01021KT 06/M01 A301 RMK A01 T00641005  RH  061%=      5-min Rain = 0
KUM1 170937Z 01022KT 07/M01 A301 RMK A01 T00651005  RH  061%=      5-min Rain = 0
KUM1 170938Z 01022KT 07/M01 A301 RMK A01 T00651005  RH  061%=      5-min Rain = 0
KUM1 170939Z 01021KT 07/M01 A301 RMK A01 T00651005  RH  061%=      5-min Rain = 0
KUM1 170940Z 01023KT 07/M00 A301 RMK A01 T00661004  RH  061%=      5-min Rain = 0
KUM1 170941Z 01022G30KT 07/M00 A301 RMK A01 T00661004  RH  061%=      5-min Rain = 0
KUM1 170942Z 01026KT 07/M00 A301 RMK A01 T00661004  RH  061%=      5-min Rain = 0
KUM1 170943Z 01023KT 07/M00 A301 RMK A01 T00661003  RH  061%=      5-min Rain = 0
KUM1 170944Z 01021KT 07/M00 A301 RMK A01 T00671003  RH  061%=      5-min Rain = 0
KUM1 170945Z 01020G25KT 07/M00 A301 RMK A01 T00661004  RH  061%=      5-min Rain = 0
KUM1 170946Z 01021G26KT 07/M00 A301 RMK A01 T00651004  RH  061%=      5-min Rain = 0
KUM1 170947Z 01021KT 07/M00 A301 RMK A01 T00651003  RH  062%=      5-min Rain = 0
KUM1 170948Z 01021KT 06/M00 A301 RMK A01 T00641004  RH  062%=      5-min Rain = 0
KUM1 170949Z 01023KT 06/M00 A301 RMK A01 T00641003  RH  062%=      5-min Rain = 0
KUM1 170950Z 01020G25KT 06/M00 A301 RMK A01 T00641004  RH  062%=      5-min Rain = 0
KUM1 170951Z 01022KT 06/M00 A301 RMK A01 T00641003  RH  062%=      5-min Rain = 0
KUM1 170952Z 01022KT 06/M00 A301 RMK A01 T00641003  RH  062%=      5-min Rain = 0
KUM1 170953Z 01022KT 06/M00 A301 RMK A01 T00641003  RH  062%=      5-min Rain = 0
KUM1 170954Z 01020G25KT 06/M00 A301 RMK A01 T00631003  RH  062%=      5-min Rain = 0
KUM1 170955Z 01021KT 06/M00 A301 RMK A01 T00631003  RH  063%=      5-min Rain = 0
KUM1 170956Z 01020KT 06/M00 A301 RMK A01 T00631003  RH  063%=      5-min Rain = 0
KUM1 170957Z 01019KT 06/M00 A301 RMK A01 T00621003  RH  063%=      5-min Rain = 0
KUM1 170958Z 01018G23KT 06/M00 A301 RMK A01 T00621003  RH  063%=      5-min Rain = 0
KUM1 170959Z 01020G25KT 06/M00 A301 RMK A01 T00611003  RH  063%=      5-min Rain = 0
KUM1 171000Z 01020KT 06/M00 A301 RMK A01 T00611003  RH  063%=      5-min Rain = 0
KUM1 171001Z 01020KT 06/M00 A301 RMK A01 T00611003  RH  063%=      5-min Rain = 0
KUM1 171002Z 01020KT 06/M00 A301 RMK A01 T00621003  RH  063%=      5-min Rain = 0
KUM1 171003Z 01019KT 06/M00 A301 RMK A01 T00611003  RH  063%=      5-min Rain = 0
KUM1 171004Z 01018G24KT 06/M00 A301 RMK A01 T00611003  RH  064%=      5-min Rain = 0
KUM1 171005Z 01020KT 06/M00 A301 RMK A01 T00611002  RH  064%=      5-min Rain = 0
KUM1 171006Z 01019KT 06/M00 A301 RMK A01 T00611002  RH  064%=      5-min Rain = 0
KUM1 171007Z 01018KT 06/M00 A301 RMK A01 T00611002  RH  064%=      5-min Rain = 0
KUM1 171008Z 01020KT 06/M00 A301 RMK A01 T00601002  RH  064%=      5-min Rain = 0
KUM1 171009Z 01020KT 06/M00 A301 RMK A01 T00611002  RH  064%=      5-min Rain = 0
KUM1 171010Z 01019KT 06/M00 A301 RMK A01 T00611002  RH  064%=      5-min Rain = 0
KUM1 171011Z 01020KT 06/M00 A301 RMK A01 T00611002  RH  064%=      5-min Rain = 0
KUM1 171012Z 01017KT 06/M00 A301 RMK A01 T00611002  RH  064%=      5-min Rain = 0
KUM1 171013Z 01018KT 06/M00 A3011 RMK A01 T00601002  RH  064%=      5-min Rain = 0
KUM1 171014Z 01018KT 06/M00 A3011 RMK A01 T00591002  RH  065%=      5-min Rain = 0
KUM1 171015Z 01019KT 06/M00 A3011 RMK A01 T00591002  RH  065%=      5-min Rain = 0
KUM1 171016Z 01019KT 06/M00 A3011 RMK A01 T00591002  RH  065%=      5-min Rain = 0
KUM1 171017Z 01016KT 06/M00 A3011 RMK A01 T00591002  RH  065%=      5-min Rain = 0
KUM1 171018Z 01019KT 06/M00 A3011 RMK A01 T00581002  RH  065%=      5-min Rain = 0
KUM1 171019Z 01018KT 06/M00 A3011 RMK A01 T00581002  RH  065%=      5-min Rain = 0
KUM1 171020Z 01018KT 06/M00 A3011 RMK A01 T00581002  RH  065%=      5-min Rain = 0
KUM1 171021Z 01018KT 06/M00 A3011 RMK A01 T00581002  RH  065%=      5-min Rain = 0
KUM1 171022Z 01018KT 06/M00 A3011 RMK A01 T00571002  RH  066%=      5-min Rain = 0
KUM1 171023Z 01017KT 06/M00 A3011 RMK A01 T00571002  RH  066%=      5-min Rain = 0
KUM1 171024Z 01017KT 06/M00 A3011 RMK A01 T00571002  RH  066%=      5-min Rain = 0
KUM1 171025Z 01016KT 06/M00 A3011 RMK A01 T00561002  RH  066%=      5-min Rain = 0
KUM1 171026Z 01020KT 06/M00 A3011 RMK A01 T00561002  RH  066%=      5-min Rain = 0
KUM1 171027Z 01019KT 06/M00 A3011 RMK A01 T00571001  RH  066%=      5-min Rain = 0
KUM1 171028Z 01018G23KT 06/M00 A3011 RMK A01 T00561001  RH  066%=      5-min Rain = 0
KUM1 171029Z 01017KT 06/M00 A3011 RMK A01 T00571001  RH  066%=      5-min Rain = 0
KUM1 171030Z 01018KT 06/M00 A3011 RMK A01 T00561002  RH  066%=      5-min Rain = 0
KUM1 171031Z 01017KT 06/M00 A3012 RMK A01 T00561001  RH  067%=      5-min Rain = 0
KUM1 171032Z 01018KT 06/M00 A3012 RMK A01 T00561002  RH  067%=      5-min Rain = 0
KUM1 171033Z 01017KT 06/M00 A3012 RMK A01 T00551002  RH  067%=      5-min Rain = 0
KUM1 171034Z 01020KT 06/M00 A3012 RMK A01 T00551001  RH  067%=      5-min Rain = 0
KUM1 171035Z 01019KT 06/M00 A3012 RMK A01 T00551001  RH  067%=      5-min Rain = 0
KUM1 171036Z 01018KT 06/M00 A3012 RMK A01 T00551001  RH  067%=      5-min Rain = 0
KUM1 171037Z 01019KT 06/M00 A3012 RMK A01 T00551001  RH  067%=      5-min Rain = 0
KUM1 171038Z 01019KT 06/M00 A3012 RMK A01 T00551001  RH  067%=      5-min Rain = 0
KUM1 171039Z 01020KT 06/M00 A3012 RMK A01 T00551001  RH  067%=      5-min Rain = 0
KUM1 171040Z 01018KT 06/M00 A3012 RMK A01 T00551001  RH  067%=      5-min Rain = 0
KUM1 171041Z 01018KT 06/M00 A3012 RMK A01 T00551001  RH  067%=      5-min Rain = 0
KUM1 171042Z 01018KT 05/M00 A3012 RMK A01 T00541002  RH  067%=      5-min Rain = 0
KUM1 171043Z 01019KT 05/M00 A3012 RMK A01 T00541001  RH  068%=      5-min Rain = 0
KUM1 171044Z 01019KT 05/M00 A3012 RMK A01 T00541001  RH  068%=      5-min Rain = 0
KUM1 171045Z 01020KT 05/M00 A3012 RMK A01 T00541001  RH  068%=      5-min Rain = 0
KUM1 171046Z 01021KT 05/M00 A3012 RMK A01 T00541001  RH  067%=      5-min Rain = 0
KUM1 171047Z 01019KT 06/M00 A3012 RMK A01 T00551001  RH  067%=      5-min Rain = 0
KUM1 171048Z 01019KT 06/M00 A3012 RMK A01 T00551001  RH  067%=      5-min Rain = 0
KUM1 171049Z 01020KT 06/M00 A3012 RMK A01 T00551001  RH  067%=      5-min Rain = 0
KUM1 171050Z 01022KT 06/M00 A3012 RMK A01 T00551001  RH  067%=      5-min Rain = 0
KUM1 171051Z 01020KT 06/M00 A3012 RMK A01 T00551001  RH  067%=      5-min Rain = 0
KUM1 171052Z 01018KT 06/M00 A3012 RMK A01 T00551001  RH  067%=      5-min Rain = 0
KUM1 171053Z 01021KT 06/M00 A3012 RMK A01 T00551001  RH  067%=      5-min Rain = 0
KUM1 171054Z 01021KT 06/M00 A3012 RMK A01 T00551001  RH  067%=      5-min Rain = 0
KUM1 171055Z 01020KT 06/M00 A3012 RMK A01 T00551001  RH  067%=      5-min Rain = 0
KUM1 171056Z 01020KT 06/M00 A3012 RMK A01 T00551001  RH  067%=      5-min Rain = 0
KUM1 171057Z 01020KT 05/M00 A3013 RMK A01 T00541001  RH  067%=      5-min Rain = 0
KUM1 171058Z 01020KT 06/M00 A3013 RMK A01 T00551001  RH  067%=      5-min Rain = 0
KUM1 171059Z 01019KT 06/M00 A3013 RMK A01 T00551001  RH  067%=      5-min Rain = 0
KUM1 171100Z 01020G25KT 05/M00 A3013 RMK A01 T00541001  RH  067%=      5-min Rain = 0
KUM1 171101Z 01021KT 06/M00 A3013 RMK A01 T00551001  RH  068%=      5-min Rain = 0
KUM1 171102Z 01020KT 06/M00 A3013 RMK A01 T00551001  RH  068%=      5-min Rain = 0
KUM1 171103Z 01019KT 06/00 A3013 RMK A01 T005500-0  RH  068%=      5-min Rain = 0
KUM1 171104Z 01017KT 05/M00 A3013 RMK A01 T00541001  RH  068%=      5-min Rain = 0
KUM1 171105Z 01019KT 05/M00 A3013 RMK A01 T00541001  RH  068%=      5-min Rain = 0
KUM1 171106Z 01019KT 05/M00 A3013 RMK A01 T00541001  RH  068%=      5-min Rain = 0
KUM1 171107Z 01018KT 05/M00 A3013 RMK A01 T00531001  RH  068%=      5-min Rain = 0
KUM1 171108Z 01020KT 05/M00 A3013 RMK A01 T00531001  RH  068%=      5-min Rain = 0
KUM1 171109Z 01018KT 05/M00 A3013 RMK A01 T00531001  RH  068%=      5-min Rain = 0
KUM1 171110Z 01019KT 05/M00 A3013 RMK A01 T00531001  RH  068%=      5-min Rain = 0
KUM1 171111Z 01019KT 05/M00 A3014 RMK A01 T00531001  RH  068%=      5-min Rain = 0
KUM1 171112Z 01017KT 05/M00 A3014 RMK A01 T00531001  RH  068%=      5-min Rain = 0
KUM1 171113Z 01017KT 05/M00 A3014 RMK A01 T00521001  RH  068%=      5-min Rain = 0
KUM1 171114Z 01017KT 05/M00 A3014 RMK A01 T00521001  RH  069%=      5-min Rain = 0
KUM1 171115Z 01019KT 05/M00 A3014 RMK A01 T00511001  RH  069%=      5-min Rain = 0
KUM1 171116Z 01019KT 05/M00 A3014 RMK A01 T00511001  RH  069%=      5-min Rain = 0
KUM1 171117Z 01018KT 05/M00 A3014 RMK A01 T00511001  RH  069%=      5-min Rain = 0
KUM1 171118Z 01018KT 05/M00 A3014 RMK A01 T00521001  RH  069%=      5-min Rain = 0
KUM1 171119Z 01019KT 05/M00 A3014 RMK A01 T00511001  RH  069%=      5-min Rain = 0
KUM1 171120Z 01020KT 05/M00 A3014 RMK A01 T00511001  RH  069%=      5-min Rain = 0
KUM1 171121Z 01019KT 05/M00 A3014 RMK A01 T00511001  RH  069%=      5-min Rain = 0
KUM1 171122Z 01020KT 05/M00 A3014 RMK A01 T00511001  RH  069%=      5-min Rain = 0
KUM1 171123Z 01017KT 05/M00 A3014 RMK A01 T00511001  RH  069%=      5-min Rain = 0
KUM1 171124Z 01017KT 05/M00 A3014 RMK A01 T00511001  RH  069%=      5-min Rain = 0
KUM1 171125Z 01020KT 05/M00 A3014 RMK A01 T00501001  RH  070%=      5-min Rain = 0
KUM1 171126Z 01019KT 05/00 A3014 RMK A01 T005100-0  RH  069%=      5-min Rain = 0
KUM1 171127Z 01017KT 05/M00 A3014 RMK A01 T00511001  RH  069%=      5-min Rain = 0
KUM1 171128Z 01018KT 05/M00 A3014 RMK A01 T00511001  RH  069%=      5-min Rain = 0
KUM1 171129Z 01016KT 05/M00 A3015 RMK A01 T00501001  RH  070%=      5-min Rain = 0
KUM1 171130Z 01016KT 05/M00 A3015 RMK A01 T00491001  RH  070%=      5-min Rain = 0
KUM1 171131Z 00017KT 05/M00 A3015 RMK A01 T00491001  RH  070%=      5-min Rain = 0
KUM1 171132Z 00018KT 05/00 A3015 RMK A01 T004900-0  RH  070%=      5-min Rain = 0
KUM1 171133Z 01018KT 05/M00 A3015 RMK A01 T00491001  RH  070%=      5-min Rain = 0
KUM1 171134Z 01018KT 05/M00 A3015 RMK A01 T00491001  RH  070%=      5-min Rain = 0
KUM1 171135Z 01016KT 05/M00 A3015 RMK A01 T00491001  RH  070%=      5-min Rain = 0
KUM1 171136Z 01016G21KT 05/M00 A3015 RMK A01 T00491001  RH  070%=      5-min Rain = 0
KUM1 171137Z 01018KT 05/00 A3015 RMK A01 T004900-0  RH  070%=      5-min Rain = 0
KUM1 171138Z 01017KT 05/00 A3015 RMK A01 T00490000  RH  070%=      5-min Rain = 0
KUM1 171139Z 01019G25KT 05/00 A3015 RMK A01 T00500000  RH  070%=      5-min Rain = 0
KUM1 171140Z 01021KT 05/00 A3015 RMK A01 T00500001  RH  070%=      5-min Rain = 0
KUM1 171141Z 01019KT 05/00 A3015 RMK A01 T00510002  RH  070%=      5-min Rain = 0
KUM1 171142Z 01017KT 05/00 A3015 RMK A01 T00520002  RH  070%=      5-min Rain = 0
KUM1 171143Z 01017KT 05/00 A3015 RMK A01 T00510001  RH  070%=      5-min Rain = 0
KUM1 171144Z 01018KT 05/00 A3015 RMK A01 T00500000  RH  070%=      5-min Rain = 0
KUM1 171145Z 01019KT 05/00 A3016 RMK A01 T00500001  RH  071%=      5-min Rain = 0
KUM1 171146Z 01018KT 05/00 A3016 RMK A01 T00500002  RH  071%=      5-min Rain = 0
KUM1 171147Z 01018KT 05/00 A3016 RMK A01 T00500002  RH  071%=      5-min Rain = 0
KUM1 171148Z 01019KT 05/00 A3016 RMK A01 T00500002  RH  071%=      5-min Rain = 0
KUM1 171149Z 01017KT 05/00 A3016 RMK A01 T00500002  RH  071%=      5-min Rain = 0
KUM1 171150Z 01016KT 05/00 A3016 RMK A01 T00500002  RH  071%=      5-min Rain = 0
KUM1 171151Z 00015KT 05/00 A3016 RMK A01 T00490001  RH  071%=      5-min Rain = 0
KUM1 171152Z 01014KT 05/00 A3016 RMK A01 T00480001  RH  071%=      5-min Rain = 0
KUM1 171153Z 00015KT 05/00 A3016 RMK A01 T00470001  RH  072%=      5-min Rain = 0
KUM1 171154Z 00015KT 05/00 A3016 RMK A01 T00470001  RH  072%=      5-min Rain = 0
KUM1 171155Z 00016KT 05/00 A3016 RMK A01 T00470001  RH  072%=      5-min Rain = 0
KUM1 171156Z 00016G21KT 05/00 A3016 RMK A01 T00470001  RH  072%=      5-min Rain = 0
KUM1 171157Z 00017KT 05/00 A3016 RMK A01 T00470002  RH  072%=      5-min Rain = 0
KUM1 171158Z 00016KT 05/00 A3016 RMK A01 T00470001  RH  072%=      5-min Rain = 0
KUM1 171159Z 00014KT 05/00 A3016 RMK A01 T00470001  RH  072%=      5-min Rain = 0
KUM1 171200Z 00014KT 05/00 A3016 RMK A01 T00460001  RH  072%=      5-min Rain = 0
KUM1 171201Z 00015KT 05/00 A3016 RMK A01 T00460001  RH  073%=      5-min Rain = 0
KUM1 171202Z 01014KT 05/00 A3016 RMK A01 T00450001  RH  073%=      5-min Rain = 0
KUM1 171203Z 01015KT 05/00 A3016 RMK A01 T00450001  RH  073%=      5-min Rain = 0
KUM1 171204Z 01016KT 05/00 A3016 RMK A01 T00450001  RH  073%=      5-min Rain = 0
KUM1 171205Z 00015KT 05/00 A3017 RMK A01 T00450001  RH  073%=      5-min Rain = 0
KUM1 171206Z 01015KT 05/00 A3017 RMK A01 T00450001  RH  073%=      5-min Rain = 0
KUM1 171207Z 01015KT 04/00 A3017 RMK A01 T00440001  RH  074%=      5-min Rain = 0
KUM1 171208Z 01015KT 04/00 A3017 RMK A01 T00440002  RH  074%=      5-min Rain = 0
KUM1 171209Z 01017KT 04/00 A3017 RMK A01 T00440002  RH  074%=      5-min Rain = 0
KUM1 171210Z 01018KT 05/00 A3017 RMK A01 T00450003  RH  074%=      5-min Rain = 0
KUM1 171211Z 00017KT 05/00 A3017 RMK A01 T00460004  RH  074%=      5-min Rain = 0
KUM1 171212Z 01015KT 05/00 A3017 RMK A01 T00460003  RH  074%=      5-min Rain = 0
KUM1 171213Z 01016KT 05/00 A3017 RMK A01 T00450003  RH  074%=      5-min Rain = 0
KUM1 171214Z 00017KT 05/00 A3017 RMK A01 T00450003  RH  074%=      5-min Rain = 0
KUM1 171215Z 01017KT 05/00 A3017 RMK A01 T00450004  RH  075%=      5-min Rain = 0
KUM1 171216Z 01018KT 05/00 A3017 RMK A01 T00450004  RH  075%=      5-min Rain = 0
KUM1 171217Z 00015KT 05/00 A3017 RMK A01 T00450004  RH  075%=      5-min Rain = 0
KUM1 171218Z 00016KT 05/00 A3017 RMK A01 T00450004  RH  075%=      5-min Rain = 0
KUM1 171219Z 01018KT 05/00 A3017 RMK A01 T00450004  RH  075%=      5-min Rain = 0
KUM1 171220Z 00017KT 05/01 A3017 RMK A01 T00450005  RH  075%=      5-min Rain = 0
KUM1 171221Z 01016KT 05/01 A3017 RMK A01 T00450005  RH  075%=      5-min Rain = 0
KUM1 171222Z 01017KT 05/01 A3017 RMK A01 T00450005  RH  075%=      5-min Rain = 0
KUM1 171223Z 01016KT 05/01 A3017 RMK A01 T00450005  RH  075%=      5-min Rain = 0
KUM1 171224Z 01015KT 05/01 A3017 RMK A01 T00450006  RH  075%=      5-min Rain = 0
KUM1 171225Z 01016KT 05/01 A3017 RMK A01 T00450006  RH  075%=      5-min Rain = 0
KUM1 171226Z 01015KT 05/01 A3017 RMK A01 T00450006  RH  076%=      5-min Rain = 0
KUM1 171227Z 01015KT 05/01 A3017 RMK A01 T00450006  RH  076%=      5-min Rain = 0
KUM1 171228Z 01016KT 05/01 A3017 RMK A01 T00450006  RH  076%=      5-min Rain = 0
KUM1 171229Z 01016KT 04/01 A3017 RMK A01 T00440006  RH  076%=      5-min Rain = 0
KUM1 171230Z 01016KT 05/01 A3017 RMK A01 T00450006  RH  076%=      5-min Rain = 0
KUM1 171231Z 01015KT 05/01 A3018 RMK A01 T00450006  RH  076%=      5-min Rain = 0
KUM1 171232Z 01015KT 05/01 A3018 RMK A01 T00450006  RH  076%=      5-min Rain = 0
KUM1 171233Z 01015KT 05/01 A3018 RMK A01 T00450007  RH  076%=      5-min Rain = 0
KUM1 171234Z 01015KT 04/01 A3018 RMK A01 T00440007  RH  076%=      5-min Rain = 0
KUM1 171235Z 01015KT 04/01 A3018 RMK A01 T00440007  RH  077%=      5-min Rain = 0
KUM1 171236Z 01015KT 04/01 A3018 RMK A01 T00440007  RH  077%=      5-min Rain = 0
KUM1 171237Z 01015KT 04/01 A3018 RMK A01 T00440007  RH  077%=      5-min Rain = 0
KUM1 171238Z 01015KT 04/01 A3018 RMK A01 T00440007  RH  077%=      5-min Rain = 0
KUM1 171239Z 01015KT 04/01 A3018 RMK A01 T00440007  RH  077%=      5-min Rain = 0
KUM1 171240Z 01014KT 04/01 A3018 RMK A01 T00440007  RH  077%=      5-min Rain = 0
KUM1 171241Z 01013KT 04/01 A3018 RMK A01 T00440007  RH  077%=      5-min Rain = 0
KUM1 171242Z 01015KT 04/01 A3018 RMK A01 T00440006  RH  077%=      5-min Rain = 0
KUM1 171243Z 01014KT 04/01 A3018 RMK A01 T00430007  RH  077%=      5-min Rain = 0
KUM1 171244Z 01013KT 04/01 A3018 RMK A01 T00430007  RH  077%=      5-min Rain = 0
KUM1 171245Z 01013KT 04/01 A3018 RMK A01 T00420006  RH  077%=      5-min Rain = 0
KUM1 171246Z 01013KT 04/01 A3018 RMK A01 T00420006  RH  078%=      5-min Rain = 0
KUM1 171247Z 01013KT 04/01 A3018 RMK A01 T00420006  RH  078%=      5-min Rain = 0
KUM1 171248Z 01013KT 04/01 A3018 RMK A01 T00420006  RH  078%=      5-min Rain = 0
KUM1 171249Z 01014KT 04/01 A3018 RMK A01 T00420006  RH  078%=      5-min Rain = 0
KUM1 171250Z 01013KT 04/01 A3018 RMK A01 T00420007  RH  078%=      5-min Rain = 0
KUM1 171251Z 01013KT 04/01 A3019 RMK A01 T00420006  RH  078%=      5-min Rain = 0
KUM1 171252Z 01014KT 04/01 A3019 RMK A01 T00420006  RH  078%=      5-min Rain = 0
KUM1 171253Z 01013KT 04/01 A3019 RMK A01 T00420006  RH  078%=      5-min Rain = 0
KUM1 171254Z 01013KT 04/01 A3019 RMK A01 T00420006  RH  078%=      5-min Rain = 0
KUM1 171255Z 01014KT 04/01 A3019 RMK A01 T00410006  RH  078%=      5-min Rain = 0
KUM1 171256Z 01013KT 04/01 A3018 RMK A01 T00410006  RH  078%=      5-min Rain = 0
KUM1 171257Z 01014KT 04/01 A3019 RMK A01 T00410006  RH  078%=      5-min Rain = 0
KUM1 171258Z 01012KT 04/01 A3019 RMK A01 T00410007  RH  078%=      5-min Rain = 0
KUM1 171259Z 01013KT 04/01 A3019 RMK A01 T00400006  RH  078%=      5-min Rain = 0
KUM1 171300Z 01014KT 04/01 A3019 RMK A01 T00400006  RH  078%=      5-min Rain = 0
KUM1 171301Z 01014KT 04/01 A3019 RMK A01 T00400006  RH  078%=      5-min Rain = 0
KUM1 171302Z 01013KT 04/01 A3019 RMK A01 T00400006  RH  079%=      5-min Rain = 0
KUM1 171303Z 01014KT 04/01 A3019 RMK A01 T00400006  RH  078%=      5-min Rain = 0
KUM1 171304Z 01014KT 04/01 A3019 RMK A01 T00400007  RH  079%=      5-min Rain = 0
KUM1 171305Z 01013KT 04/01 A3019 RMK A01 T00410007  RH  079%=      5-min Rain = 0
KUM1 171306Z 01015KT 04/01 A3019 RMK A01 T00410007  RH  079%=      5-min Rain = 0
KUM1 171307Z 01015KT 04/01 A3019 RMK A01 T00410007  RH  079%=      5-min Rain = 0
KUM1 171308Z 01014KT 04/01 A3019 RMK A01 T00410007  RH  079%=      5-min Rain = 0
KUM1 171309Z 01013KT 04/01 A3019 RMK A01 T00400007  RH  079%=      5-min Rain = 0
KUM1 171310Z 01013KT 04/01 A3019 RMK A01 T00400007  RH  079%=      5-min Rain = 0
KUM1 171311Z 01014KT 04/01 A3019 RMK A01 T00400007  RH  079%=      5-min Rain = 0
KUM1 171312Z 01014KT 04/01 A3019 RMK A01 T00390007  RH  079%=      5-min Rain = 0
KUM1 171313Z 01013KT 04/01 A3019 RMK A01 T00390007  RH  079%=      5-min Rain = 0
KUM1 171314Z 01015KT 04/01 A3019 RMK A01 T00390007  RH  080%=      5-min Rain = 0
KUM1 171315Z 01014KT 04/01 A3019 RMK A01 T00390007  RH  080%=      5-min Rain = 0
KUM1 171316Z 00014KT 04/01 A3019 RMK A01 T00390007  RH  080%=      5-min Rain = 0
KUM1 171317Z 00014KT 04/01 A3019 RMK A01 T00390007  RH  080%=      5-min Rain = 0
KUM1 171318Z 01015KT 04/01 A3019 RMK A01 T00380007  RH  080%=      5-min Rain = 0
KUM1 171319Z 00013KT 04/01 A3019 RMK A01 T00390007  RH  080%=      5-min Rain = 0
KUM1 171320Z 01014KT 04/01 A3019 RMK A01 T00380007  RH  080%=      5-min Rain = 0
KUM1 171321Z 01013KT 04/01 A3019 RMK A01 T00380007  RH  080%=      5-min Rain = 0
KUM1 171322Z 01015KT 04/01 A3019 RMK A01 T00370007  RH  080%=      5-min Rain = 0
KUM1 171323Z 01014KT 04/01 A3019 RMK A01 T00380008  RH  081%=      5-min Rain = 0
KUM1 171324Z 01014KT 04/01 A3019 RMK A01 T00380007  RH  081%=      5-min Rain = 0
KUM1 171325Z 01013KT 04/01 A3019 RMK A01 T00380007  RH  081%=      5-min Rain = 0
KUM1 171326Z 01013KT 04/01 A3019 RMK A01 T00380007  RH  081%=      5-min Rain = 0
KUM1 171327Z 01013KT 04/01 A3019 RMK A01 T00370007  RH  081%=      5-min Rain = 0
KUM1 171328Z 01012KT 04/01 A3019 RMK A01 T00370007  RH  081%=      5-min Rain = 0
KUM1 171329Z 01014KT 04/01 A3019 RMK A01 T00360008  RH  081%=      5-min Rain = 0
KUM1 171330Z 01013KT 04/01 A302 RMK A01 T00360008  RH  082%=      5-min Rain = 0
KUM1 171331Z 01013KT 04/01 A302 RMK A01 T00370008  RH  082%=      5-min Rain = 0
KUM1 171332Z 01013KT 04/01 A302 RMK A01 T00370009  RH  082%=      5-min Rain = 0
KUM1 171333Z 01014KT 04/01 A302 RMK A01 T00380009  RH  082%=      5-min Rain = 0
KUM1 171334Z 01014KT 04/01 A302 RMK A01 T00380009  RH  082%=      5-min Rain = 0
KUM1 171335Z 01012KT 04/01 A302 RMK A01 T00380009  RH  082%=      5-min Rain = 0
KUM1 171336Z 01013KT 04/01 A302 RMK A01 T00380010  RH  082%=      5-min Rain = 0
KUM1 171337Z 01015KT 04/01 A302 RMK A01 T00380010  RH  082%=      5-min Rain = 0
KUM1 171338Z 01015KT 04/01 A302 RMK A01 T00390011  RH  082%=      5-min Rain = 0
KUM1 171339Z 01013KT 04/01 A302 RMK A01 T00390011  RH  082%=      5-min Rain = 0
KUM1 171340Z 01013KT 04/01 A302 RMK A01 T00400011  RH  081%=      5-min Rain = 0
KUM1 171341Z 01013KT 04/01 A302 RMK A01 T00390011  RH  081%=      5-min Rain = 0
KUM1 171342Z 01013KT 04/01 A302 RMK A01 T00390011  RH  081%=      5-min Rain = 0
KUM1 171343Z 01013KT 04/01 A302 RMK A01 T00390011  RH  082%=      5-min Rain = 0
KUM1 171344Z 01013KT 04/01 A302 RMK A01 T00400011  RH  082%=      5-min Rain = 0
KUM1 171345Z 01013KT 04/01 A302 RMK A01 T00390011  RH  082%=      5-min Rain = 0
KUM1 171346Z 01014KT 04/01 A302 RMK A01 T00400011  RH  082%=      5-min Rain = 0
KUM1 171347Z 01012KT 04/01 A302 RMK A01 T00400011  RH  082%=      5-min Rain = 0
KUM1 171348Z 01013KT 04/01 A302 RMK A01 T00400011  RH  082%=      5-min Rain = 0
KUM1 171349Z 01012KT 04/01 A302 RMK A01 T00400011  RH  082%=      5-min Rain = 0
KUM1 171350Z 01012KT 04/01 A302 RMK A01 T00400011  RH  082%=      5-min Rain = 0
KUM1 171351Z 00012KT 04/01 A302 RMK A01 T00400011  RH  082%=      5-min Rain = 0
KUM1 171352Z 00012KT 04/01 A302 RMK A01 T00400011  RH  081%=      5-min Rain = 0
KUM1 171353Z 00011KT 04/01 A302 RMK A01 T00400011  RH  081%=      5-min Rain = 0
KUM1 171354Z 01012KT 04/01 A302 RMK A01 T00400011  RH  081%=      5-min Rain = 0
KUM1 171355Z 00012KT 04/01 A302 RMK A01 T00400011  RH  081%=      5-min Rain = 0
KUM1 171356Z 01011KT 04/01 A3021 RMK A01 T00410012  RH  081%=      5-min Rain = 0
KUM1 171357Z 00010KT 04/01 A3021 RMK A01 T00410011  RH  081%=      5-min Rain = 0
KUM1 171358Z 00009KT 04/01 A3021 RMK A01 T00400011  RH  081%=      5-min Rain = 0
KUM1 171359Z 00011KT 04/01 A3021 RMK A01 T00410011  RH  081%=      5-min Rain = 0
KUM1 171400Z 36010KT 04/01 A3021 RMK A01 T00400011  RH  081%=      5-min Rain = 0
KUM1 171401Z 00009KT 04/01 A3021 RMK A01 T00400011  RH  081%=      5-min Rain = 0
KUM1 171402Z 00009KT 04/01 A3021 RMK A01 T00400011  RH  081%=      5-min Rain = 0
KUM1 171403Z 00008KT 04/01 A3021 RMK A01 T00400011  RH  081%=      5-min Rain = 0
KUM1 171404Z 00009KT 04/01 A3021 RMK A01 T00400011  RH  081%=      5-min Rain = 0
KUM1 171405Z 00010KT 04/01 A3021 RMK A01 T00400011  RH  082%=      5-min Rain = 0
KUM1 171406Z 00010KT 04/01 A3021 RMK A01 T00400012  RH  082%=      5-min Rain = 0
KUM1 171407Z 00009KT 04/01 A3021 RMK A01 T00410012  RH  082%=      5-min Rain = 0
KUM1 171408Z 00009KT 04/01 A3021 RMK A01 T00410012  RH  081%=      5-min Rain = 0
KUM1 171409Z 00010KT 04/01 A3021 RMK A01 T00410012  RH  081%=      5-min Rain = 0
KUM1 171410Z 00010KT 04/01 A3021 RMK A01 T00410012  RH  081%=      5-min Rain = 0
KUM1 171411Z 00009KT 04/01 A3021 RMK A01 T00410012  RH  081%=      5-min Rain = 0
KUM1 171412Z 36011KT 04/01 A3021 RMK A01 T00420013  RH  081%=      5-min Rain = 0
KUM1 171413Z 01009KT 04/01 A3021 RMK A01 T00420013  RH  081%=      5-min Rain = 0
KUM1 171414Z 01009KT 04/01 A3021 RMK A01 T00430013  RH  081%=      5-min Rain = 0
KUM1 171415Z 00010KT 04/01 A3021 RMK A01 T00430013  RH  081%=      5-min Rain = 0
KUM1 171416Z 01009KT 04/01 A3021 RMK A01 T00430014  RH  081%=      5-min Rain = 0
KUM1 171417Z 01009KT 04/01 A3021 RMK A01 T00440014  RH  081%=      5-min Rain = 0
KUM1 171418Z 01010KT 04/01 A3021 RMK A01 T00440014  RH  081%=      5-min Rain = 0
KUM1 171419Z 01011KT 04/02 A3021 RMK A01 T00440015  RH  081%=      5-min Rain = 0
KUM1 171420Z 01010KT 05/02 A3021 RMK A01 T00450015  RH  081%=      5-min Rain = 0
KUM1 171421Z 01010KT 05/02 A3021 RMK A01 T00460016  RH  081%=      5-min Rain = 0
KUM1 171422Z 01010KT 05/02 A3021 RMK A01 T00460016  RH  081%=      5-min Rain = 0
KUM1 171423Z 01012KT 05/02 A3021 RMK A01 T00460016  RH  081%=      5-min Rain = 0
KUM1 171424Z 00012KT 05/02 A3021 RMK A01 T00470016  RH  081%=      5-min Rain = 0
KUM1 171425Z 01011KT 05/02 A3021 RMK A01 T00470016  RH  080%=      5-min Rain = 0
KUM1 171426Z 00013KT 05/02 A3021 RMK A01 T00480017  RH  080%=      5-min Rain = 0
KUM1 171427Z 01012KT 05/02 A3021 RMK A01 T00480017  RH  080%=      5-min Rain = 0
KUM1 171428Z 01014KT 05/02 A3021 RMK A01 T00490017  RH  080%=      5-min Rain = 0
KUM1 171429Z 01013KT 05/02 A3021 RMK A01 T00490018  RH  080%=      5-min Rain = 0
KUM1 171430Z 01014KT 05/02 A3021 RMK A01 T00500018  RH  080%=      5-min Rain = 0
KUM1 171431Z 01015KT 05/02 A3021 RMK A01 T00500018  RH  079%=      5-min Rain = 0
KUM1 171432Z 01013KT 05/02 A3021 RMK A01 T00510018  RH  079%=      5-min Rain = 0
KUM1 171433Z 01013KT 05/02 A3021 RMK A01 T00510018  RH  079%=      5-min Rain = 0
KUM1 171434Z 01014KT 05/02 A3021 RMK A01 T00520018  RH  079%=      5-min Rain = 0
KUM1 171435Z 01012KT 05/02 A3021 RMK A01 T00520018  RH  079%=      5-min Rain = 0
KUM1 171436Z 01013KT 05/02 A3021 RMK A01 T00530019  RH  079%=      5-min Rain = 0
KUM1 171437Z 01013KT 05/02 A3021 RMK A01 T00540019  RH  078%=      5-min Rain = 0
KUM1 171438Z 01013KT 05/02 A3021 RMK A01 T00540019  RH  078%=      5-min Rain = 0
KUM1 171439Z 00015KT 06/02 A3021 RMK A01 T00550019  RH  078%=      5-min Rain = 0
KUM1 171440Z 01013KT 06/02 A3021 RMK A01 T00550019  RH  078%=      5-min Rain = 0
KUM1 171441Z 01012KT 06/02 A3021 RMK A01 T00550019  RH  078%=      5-min Rain = 0
KUM1 171442Z 01014KT 06/02 A3021 RMK A01 T00560020  RH  077%=      5-min Rain = 0
KUM1 171443Z 01012KT 06/02 A3021 RMK A01 T00570020  RH  077%=      5-min Rain = 0
KUM1 171444Z 01014KT 06/02 A3021 RMK A01 T00580020  RH  077%=      5-min Rain = 0
KUM1 171445Z 01016KT 06/02 A3021 RMK A01 T00580020  RH  077%=      5-min Rain = 0
KUM1 171446Z 01015KT 06/02 A3021 RMK A01 T00580019  RH  076%=      5-min Rain = 0
KUM1 171447Z 01014KT 06/02 A3021 RMK A01 T00580019  RH  076%=      5-min Rain = 0
KUM1 171448Z 01015G21KT 06/02 A3021 RMK A01 T00580020  RH  076%=      5-min Rain = 0
KUM1 171449Z 02016KT 06/02 A3021 RMK A01 T00590020  RH  076%=      5-min Rain = 0
KUM1 171450Z 02017KT 06/02 A3021 RMK A01 T00590019  RH  075%=      5-min Rain = 0
KUM1 171451Z 01016KT 06/02 A3021 RMK A01 T00590019  RH  075%=      5-min Rain = 0
KUM1 171452Z 01015KT 06/02 A3021 RMK A01 T00590019  RH  075%=      5-min Rain = 0
KUM1 171453Z 02014KT 06/02 A3021 RMK A01 T00590019  RH  075%=      5-min Rain = 0
KUM1 171454Z 02016KT 06/02 A3022 RMK A01 T00600020  RH  075%=      5-min Rain = 0
KUM1 171455Z 01014KT 06/02 A3022 RMK A01 T00610019  RH  075%=      5-min Rain = 0
KUM1 171456Z 01014KT 06/02 A3022 RMK A01 T00610019  RH  075%=      5-min Rain = 0
KUM1 171457Z 02011KT 06/02 A3022 RMK A01 T00610019  RH  074%=      5-min Rain = 0
KUM1 171458Z 03015KT 06/02 A3022 RMK A01 T00620020  RH  074%=      5-min Rain = 0
KUM1 171459Z 02015KT 06/02 A3022 RMK A01 T00630020  RH  074%=      5-min Rain = 0
KUM1 171500Z 02014KT 06/02 A3022 RMK A01 T00620019  RH  074%=      5-min Rain = 0
KUM1 171501Z 02012KT 06/02 A3022 RMK A01 T00620020  RH  074%=      5-min Rain = 0
KUM1 171502Z 02015KT 06/02 A3022 RMK A01 T00630020  RH  074%=      5-min Rain = 0
KUM1 171503Z 02013KT 06/02 A3022 RMK A01 T00630020  RH  073%=      5-min Rain = 0
KUM1 171504Z 02014KT 06/02 A3022 RMK A01 T00630019  RH  073%=      5-min Rain = 0
KUM1 171505Z 02016KT 06/02 A3022 RMK A01 T00630019  RH  074%=      5-min Rain = 0
KUM1 171506Z 02015KT 06/02 A3022 RMK A01 T00630019  RH  074%=      5-min Rain = 0
KUM1 171507Z 02014KT 06/02 A3022 RMK A01 T00640019  RH  073%=      5-min Rain = 0
KUM1 171508Z 02013KT 06/02 A3022 RMK A01 T00640020  RH  073%=      5-min Rain = 0
KUM1 171509Z 02015KT 07/02 A3022 RMK A01 T00650019  RH  073%=      5-min Rain = 0
KUM1 171510Z 01015KT 07/02 A3022 RMK A01 T00650019  RH  073%=      5-min Rain = 0
KUM1 171511Z 02015KT 07/02 A3022 RMK A01 T00650020  RH  073%=      5-min Rain = 0
KUM1 171512Z 02014KT 07/02 A3022 RMK A01 T00660019  RH  072%=      5-min Rain = 0
KUM1 171513Z 02015KT 07/02 A3022 RMK A01 T00660020  RH  072%=      5-min Rain = 0
KUM1 171514Z 01014KT 07/02 A3022 RMK A01 T00660019  RH  072%=      5-min Rain = 0
KUM1 171515Z 02015KT 07/02 A3022 RMK A01 T00660020  RH  072%=      5-min Rain = 0
KUM1 171516Z 01015KT 07/02 A3022 RMK A01 T00660019  RH  072%=      5-min Rain = 0
KUM1 171517Z 02015KT 07/02 A3022 RMK A01 T00660019  RH  072%=      5-min Rain = 0
KUM1 171518Z 02015KT 07/02 A3022 RMK A01 T00660019  RH  072%=      5-min Rain = 0
KUM1 171519Z 02017KT 07/02 A3022 RMK A01 T00680020  RH  072%=      5-min Rain = 0
KUM1 171520Z 01015KT 07/02 A3022 RMK A01 T00680019  RH  071%=      5-min Rain = 0
KUM1 171521Z 02015KT 07/02 A3022 RMK A01 T00680020  RH  071%=      5-min Rain = 0
KUM1 171522Z 02014KT 07/02 A3022 RMK A01 T00690020  RH  071%=      5-min Rain = 0
KUM1 171523Z 01016KT 07/02 A3022 RMK A01 T00690019  RH  071%=      5-min Rain = 0
KUM1 171524Z 02016KT 07/02 A3022 RMK A01 T00680019  RH  071%=      5-min Rain = 0
KUM1 171525Z 02016KT 07/02 A3022 RMK A01 T00690020  RH  071%=      5-min Rain = 0
KUM1 171526Z 02015KT 07/02 A3022 RMK A01 T00700020  RH  071%=      5-min Rain = 0
KUM1 171527Z 02015KT 07/02 A3022 RMK A01 T00700019  RH  070%=      5-min Rain = 0
KUM1 171528Z 03014KT 07/02 A3022 RMK A01 T00700019  RH  070%=      5-min Rain = 0
KUM1 171529Z 02013KT 07/02 A3022 RMK A01 T00700019  RH  070%=      5-min Rain = 0
KUM1 171530Z 02014KT 07/02 A3022 RMK A01 T00700020  RH  070%=      5-min Rain = 0
KUM1 171531Z 03015KT 07/02 A3022 RMK A01 T00710020  RH  070%=      5-min Rain = 0
KUM1 171532Z 02013KT 07/02 A3022 RMK A01 T00720020  RH  070%=      5-min Rain = 0
KUM1 171533Z 02013KT 07/02 A3022 RMK A01 T00730021  RH  070%=      5-min Rain = 0
KUM1 171534Z 02016KT 07/02 A3022 RMK A01 T00730020  RH  069%=      5-min Rain = 0
KUM1 171535Z 02015KT 07/02 A3022 RMK A01 T00730020  RH  069%=      5-min Rain = 0
KUM1 171536Z 02013KT 07/02 A3022 RMK A01 T00730020  RH  069%=      5-min Rain = 0
KUM1 171537Z 01014KT 07/02 A3022 RMK A01 T00730021  RH  069%=      5-min Rain = 0
KUM1 171538Z 02013KT 07/02 A3022 RMK A01 T00740020  RH  069%=      5-min Rain = 0
KUM1 171539Z 02011KT 07/02 A3022 RMK A01 T00740020  RH  069%=      5-min Rain = 0
KUM1 171540Z 02014KT 08/02 A3022 RMK A01 T00750021  RH  069%=      5-min Rain = 0
KUM1 171541Z 02012KT 08/02 A3022 RMK A01 T00760021  RH  068%=      5-min Rain = 0
KUM1 171542Z 03014KT 08/02 A3022 RMK A01 T00750020  RH  068%=      5-min Rain = 0
KUM1 171543Z 03014KT 08/02 A3022 RMK A01 T00750019  RH  068%=      5-min Rain = 0
KUM1 171544Z 01014KT 07/02 A3022 RMK A01 T00740020  RH  068%=      5-min Rain = 0
KUM1 171545Z 01016KT 08/02 A3022 RMK A01 T00760021  RH  068%=      5-min Rain = 0
KUM1 171546Z 02015KT 08/02 A3022 RMK A01 T00770020  RH  067%=      5-min Rain = 0
KUM1 171547Z 02016KT 08/02 A3022 RMK A01 T00770020  RH  067%=      5-min Rain = 0
KUM1 171548Z 02014KT 08/02 A3022 RMK A01 T00780020  RH  067%=      5-min Rain = 0
KUM1 171549Z 02018KT 08/02 A3022 RMK A01 T00790020  RH  066%=      5-min Rain = 0
KUM1 171550Z 02014KT 08/02 A3022 RMK A01 T00780018  RH  066%=      5-min Rain = 0
KUM1 171551Z 03016KT 08/02 A3022 RMK A01 T00780019  RH  066%=      5-min Rain = 0
KUM1 171552Z 04015KT 08/02 A3023 RMK A01 T00780019  RH  067%=      5-min Rain = 0
KUM1 171553Z 02014KT 08/02 A3023 RMK A01 T00780019  RH  066%=      5-min Rain = 0
KUM1 171554Z 02017KT 08/02 A3022 RMK A01 T00780019  RH  066%=      5-min Rain = 0
KUM1 171555Z 03017KT 08/02 A3023 RMK A01 T00780017  RH  065%=      5-min Rain = 0
KUM1 171556Z 04015KT 08/02 A3022 RMK A01 T00770018  RH  066%=      5-min Rain = 0
KUM1 171557Z 04015KT 08/02 A3022 RMK A01 T00780019  RH  066%=      5-min Rain = 0
KUM1 171558Z 04012KT 08/02 A3022 RMK A01 T00780018  RH  066%=      5-min Rain = 0
KUM1 171559Z 04015KT 08/02 A3022 RMK A01 T00780020  RH  067%=      5-min Rain = 0
KUM1 171600Z 03014KT 08/02 A3022 RMK A01 T00800021  RH  066%=      5-min Rain = 0
KUM1 171601Z 03015KT 08/02 A3022 RMK A01 T00800020  RH  066%=      5-min Rain = 0
KUM1 171602Z 02014KT 08/02 A3022 RMK A01 T00800019  RH  065%=      5-min Rain = 0
KUM1 171603Z 02015KT 08/02 A3022 RMK A01 T00810020  RH  065%=      5-min Rain = 0
KUM1 171604Z 03015KT 08/02 A3022 RMK A01 T00820019  RH  065%=      5-min Rain = 0
KUM1 171605Z 03015KT 08/02 A3022 RMK A01 T00820019  RH  065%=      5-min Rain = 0
KUM1 171606Z 03014KT 08/02 A3022 RMK A01 T00810018  RH  065%=      5-min Rain = 0
KUM1 171607Z 03014KT 08/02 A3022 RMK A01 T00810020  RH  065%=      5-min Rain = 0
KUM1 171608Z 03014KT 08/02 A3022 RMK A01 T00820020  RH  065%=      5-min Rain = 0
KUM1 171609Z 03012KT 08/02 A3022 RMK A01 T00820020  RH  065%=      5-min Rain = 0
KUM1 171610Z 03013KT 08/02 A3022 RMK A01 T00840022  RH  065%=      5-min Rain = 0
KUM1 171611Z 02012KT 09/02 A3022 RMK A01 T00860024  RH  065%=      5-min Rain = 0
KUM1 171612Z 03013KT 09/02 A3022 RMK A01 T00870022  RH  064%=      5-min Rain = 0
KUM1 171613Z 03014KT 09/02 A3022 RMK A01 T00860021  RH  064%=      5-min Rain = 0
KUM1 171614Z 04014KT 09/02 A3022 RMK A01 T00850021  RH  064%=      5-min Rain = 0
KUM1 171615Z 02016KT 09/02 A3022 RMK A01 T00860021  RH  064%=      5-min Rain = 0
KUM1 171616Z 03014KT 09/02 A3022 RMK A01 T00850019  RH  063%=      5-min Rain = 0
KUM1 171617Z 03015KT 08/02 A3022 RMK A01 T00830019  RH  064%=      5-min Rain = 0
KUM1 171618Z 03014KT 08/02 A3022 RMK A01 T00830020  RH  064%=      5-min Rain = 0
KUM1 171619Z 01014KT 08/02 A3022 RMK A01 T00840021  RH  064%=      5-min Rain = 0
KUM1 171620Z 02013KT 09/02 A3022 RMK A01 T00850020  RH  064%=      5-min Rain = 0
KUM1 171621Z 02013KT 09/02 A3022 RMK A01 T00850020  RH  064%=      5-min Rain = 0
KUM1 171622Z 02011KT 09/02 A3022 RMK A01 T00870022  RH  064%=      5-min Rain = 0
KUM1 171623Z 03014KT 09/02 A3022 RMK A01 T00890023  RH  063%=      5-min Rain = 0
KUM1 171624Z 03013KT 09/02 A3022 RMK A01 T00880020  RH  063%=      5-min Rain = 0
KUM1 171625Z 04012KT 09/02 A3022 RMK A01 T00870021  RH  063%=      5-min Rain = 0
KUM1 171626Z 02013KT 09/02 A3022 RMK A01 T00860021  RH  063%=      5-min Rain = 0
KUM1 171627Z 02013KT 09/02 A3022 RMK A01 T00880022  RH  063%=      5-min Rain = 0
KUM1 171628Z 02013KT 09/02 A3022 RMK A01 T00880021  RH  062%=      5-min Rain = 0
KUM1 171629Z 02012KT 09/02 A3022 RMK A01 T00890020  RH  062%=      5-min Rain = 0
KUM1 171630Z 03010KT 09/02 A3022 RMK A01 T00890022  RH  063%=      5-min Rain = 0
KUM1 171631Z 01010KT 09/02 A3022 RMK A01 T00910022  RH  062%=      5-min Rain = 0
KUM1 171632Z 02012KT 09/02 A3022 RMK A01 T00900021  RH  062%=      5-min Rain = 0
KUM1 171633Z 03013KT 09/02 A3022 RMK A01 T00900021  RH  062%=      5-min Rain = 0
KUM1 171634Z 03012KT 09/02 A3022 RMK A01 T00890021  RH  062%=      5-min Rain = 0
KUM1 171635Z 03010KT 09/02 A3022 RMK A01 T00880020  RH  063%=      5-min Rain = 0
KUM1 171636Z 03012KT 09/02 A3022 RMK A01 T00890023  RH  063%=      5-min Rain = 0
KUM1 171637Z 02012KT 09/02 A3022 RMK A01 T00890021  RH  062%=      5-min Rain = 0
KUM1 171638Z 03011KT 09/02 A3022 RMK A01 T00860017  RH  062%=      5-min Rain = 0
KUM1 171639Z 02011KT 09/02 A3022 RMK A01 T00850019  RH  063%=      5-min Rain = 0
KUM1 171640Z 01011KT 09/02 A3022 RMK A01 T00870021  RH  063%=      5-min Rain = 0
KUM1 171641Z 03011KT 09/02 A3022 RMK A01 T00890022  RH  062%=      5-min Rain = 0
KUM1 171642Z 04011KT 09/02 A3022 RMK A01 T00900021  RH  062%=      5-min Rain = 0
KUM1 171643Z 04013KT 09/02 A3021 RMK A01 T00890019  RH  061%=      5-min Rain = 0
KUM1 171644Z 04014KT 09/02 A3021 RMK A01 T00880019  RH  062%=      5-min Rain = 0
KUM1 171645Z 04013KT 09/02 A3021 RMK A01 T00890021  RH  062%=      5-min Rain = 0
KUM1 171646Z 03012KT 09/02 A3021 RMK A01 T00910021  RH  062%=      5-min Rain = 0
KUM1 171647Z 04012KT 09/02 A3021 RMK A01 T00920021  RH  061%=      5-min Rain = 0
KUM1 171648Z 04012KT 09/02 A3021 RMK A01 T00920020  RH  061%=      5-min Rain = 0
KUM1 171649Z 03013KT 09/02 A3021 RMK A01 T00900020  RH  061%=      5-min Rain = 0
KUM1 171650Z 02012KT 09/02 A3021 RMK A01 T00890019  RH  061%=      5-min Rain = 0
KUM1 171651Z 02014KT 09/02 A3021 RMK A01 T00890020  RH  062%=      5-min Rain = 0
KUM1 171652Z 04009KT 09/02 A3021 RMK A01 T00910021  RH  062%=      5-min Rain = 0
KUM1 171653Z 03009KT 10/03 A3021 RMK A01 T00960027  RH  062%=      5-min Rain = 0
KUM1 171654Z 02010KT 10/03 A3021 RMK A01 T01010028  RH  060%=      5-min Rain = 0
KUM1 171655Z 03011KT 10/02 A3021 RMK A01 T01020024  RH  058%=      5-min Rain = 0
KUM1 171656Z 02010KT 10/02 A3021 RMK A01 T01000023  RH  058%=      5-min Rain = 0
KUM1 171657Z 01009KT 10/02 A3021 RMK A01 T01000022  RH  058%=      5-min Rain = 0
KUM1 171658Z 01010KT 10/02 A3021 RMK A01 T00990021  RH  058%=      5-min Rain = 0
KUM1 171659Z 03012KT 10/02 A3021 RMK A01 T00990021  RH  058%=      5-min Rain = 0
KUM1 171700Z 04011KT 10/02 A3022 RMK A01 T00970018  RH  058%=      5-min Rain = 0
KUM1 171701Z 04011KT 10/02 A3022 RMK A01 T00960018  RH  058%=      5-min Rain = 0
KUM1 171702Z 03010KT 10/02 A3022 RMK A01 T00950019  RH  059%=      5-min Rain = 0
KUM1 171703Z 03011KT 10/02 A3021 RMK A01 T00950018  RH  059%=      5-min Rain = 0
KUM1 171704Z 03011KT 10/02 A3021 RMK A01 T00950019  RH  059%=      5-min Rain = 0
KUM1 171705Z 03010KT 10/02 A3021 RMK A01 T00950018  RH  059%=      5-min Rain = 0
KUM1 171706Z 04010KT 10/02 A3021 RMK A01 T00960021  RH  060%=      5-min Rain = 0
KUM1 171707Z 04011KT 10/02 A3021 RMK A01 T00990023  RH  059%=      5-min Rain = 0
KUM1 171708Z 03010KT 10/02 A3021 RMK A01 T00990021  RH  058%=      5-min Rain = 0
KUM1 171709Z 03009KT 10/02 A3021 RMK A01 T00990021  RH  058%=      5-min Rain = 0
KUM1 171710Z 03010G16KT 10/02 A3021 RMK A01 T00970020  RH  059%=      5-min Rain = 0
KUM1 171711Z 02014KT 10/02 A3021 RMK A01 T00970019  RH  058%=      5-min Rain = 0
KUM1 171712Z 01012KT 10/02 A3021 RMK A01 T00970017  RH  057%=      5-min Rain = 0
KUM1 171713Z 01012KT 10/02 A3021 RMK A01 T00970017  RH  057%=      5-min Rain = 0
KUM1 171714Z 01009KT 10/02 A3021 RMK A01 T00970017  RH  058%=      5-min Rain = 0
KUM1 171715Z 02012KT 10/02 A3021 RMK A01 T00970017  RH  057%=      5-min Rain = 0
KUM1 171716Z 03010KT 10/02 A3021 RMK A01 T00950015  RH  057%=      5-min Rain = 0
KUM1 171717Z 02012KT 09/02 A3021 RMK A01 T00940016  RH  058%=      5-min Rain = 0
KUM1 171718Z 02013KT 09/02 A3021 RMK A01 T00940019  RH  059%=      5-min Rain = 0
KUM1 171719Z 02013KT 10/02 A3021 RMK A01 T00960019  RH  059%=      5-min Rain = 0
KUM1 171720Z 02010KT 10/02 A3021 RMK A01 T00950017  RH  058%=      5-min Rain = 0
KUM1 171721Z 01009KT 10/02 A3021 RMK A01 T00950019  RH  059%=      5-min Rain = 0
KUM1 171722Z 01009KT 10/02 A3021 RMK A01 T00970021  RH  059%=      5-min Rain = 0
KUM1 171723Z 01008KT 10/02 A3021 RMK A01 T00990021  RH  058%=      5-min Rain = 0
KUM1 171724Z 01007KT 10/02 A3021 RMK A01 T01000021  RH  058%=      5-min Rain = 0
KUM1 171725Z 01008KT 10/02 A3021 RMK A01 T01000020  RH  058%=      5-min Rain = 0
KUM1 171726Z 01010KT 10/02 A3021 RMK A01 T01000019  RH  057%=      5-min Rain = 0
KUM1 171727Z 01009KT 10/02 A3021 RMK A01 T00980017  RH  057%=      5-min Rain = 0
KUM1 171728Z 02012KT 10/02 A3021 RMK A01 T01000022  RH  058%=      5-min Rain = 0
KUM1 171729Z 03014KT 10/02 A3021 RMK A01 T01020019  RH  056%=      5-min Rain = 0
KUM1 171730Z 03013KT 10/02 A3021 RMK A01 T01020019  RH  056%=      5-min Rain = 0
KUM1 171731Z 03013KT 10/02 A3021 RMK A01 T01020018  RH  056%=      5-min Rain = 0
KUM1 171732Z 01012KT 10/02 A3021 RMK A01 T01010018  RH  056%=      5-min Rain = 0
KUM1 171733Z 01012KT 10/02 A3021 RMK A01 T01020019  RH  056%=      5-min Rain = 0
KUM1 171734Z 00011KT 10/02 A3021 RMK A01 T01030018  RH  056%=      5-min Rain = 0
KUM1 171735Z 01009KT 10/02 A3021 RMK A01 T01020019  RH  056%=      5-min Rain = 0
KUM1 171736Z 02009KT 10/02 A3021 RMK A01 T01030021  RH  057%=      5-min Rain = 0
KUM1 171737Z 01007KT 10/02 A3021 RMK A01 T01030020  RH  056%=      5-min Rain = 0
KUM1 171738Z 01012KT 10/02 A3021 RMK A01 T01040023  RH  057%=      5-min Rain = 0
KUM1 171739Z 36012KT 11/02 A3021 RMK A01 T01070021  RH  055%=      5-min Rain = 0
KUM1 171740Z 36012KT 11/02 A3021 RMK A01 T01080021  RH  055%=      5-min Rain = 0
KUM1 171741Z 36012KT 11/02 A3021 RMK A01 T01090022  RH  055%=      5-min Rain = 0
KUM1 171742Z 00010KT 11/02 A3021 RMK A01 T01110022  RH  054%=      5-min Rain = 0
KUM1 171743Z 02011KT 11/02 A3021 RMK A01 T01110021  RH  054%=      5-min Rain = 0
KUM1 171744Z 04014KT 11/02 A3021 RMK A01 T01090021  RH  054%=      5-min Rain = 0
KUM1 171745Z 03015KT 11/02 A3021 RMK A01 T01110023  RH  055%=      5-min Rain = 0
KUM1 171746Z 03014KT 11/02 A3021 RMK A01 T01110021  RH  054%=      5-min Rain = 0
KUM1 171747Z 02012KT 11/02 A3021 RMK A01 T01100021  RH  054%=      5-min Rain = 0
KUM1 171748Z 02011KT 11/02 A3021 RMK A01 T01100021  RH  054%=      5-min Rain = 0
KUM1 171749Z 03012KT 11/02 A3021 RMK A01 T01090021  RH  054%=      5-min Rain = 0
KUM1 171750Z 03014KT 11/02 A3021 RMK A01 T01090019  RH  054%=      5-min Rain = 0
KUM1 171751Z 03012KT 11/02 A3021 RMK A01 T01060017  RH  054%=      5-min Rain = 0
KUM1 171752Z 03011KT 11/02 A3021 RMK A01 T01060020  RH  055%=      5-min Rain = 0
KUM1 171753Z 03011KT 11/02 A3021 RMK A01 T01060018  RH  054%=      5-min Rain = 0
KUM1 171754Z 02013G18KT 11/02 A3021 RMK A01 T01070020  RH  055%=      5-min Rain = 0
KUM1 171755Z 03015KT 11/02 A3021 RMK A01 T01110023  RH  055%=      5-min Rain = 0
KUM1 171756Z 04016KT 11/02 A3021 RMK A01 T01140023  RH  054%=      5-min Rain = 0
KUM1 171757Z 03014KT 11/02 A3021 RMK A01 T01130022  RH  053%=      5-min Rain = 0
KUM1 171758Z 03015KT 11/02 A3021 RMK A01 T01120020  RH  053%=      5-min Rain = 0
KUM1 171759Z 02013KT 11/02 A3021 RMK A01 T01140024  RH  054%=      5-min Rain = 0
KUM1 171800Z 02013KT 12/02 A3021 RMK A01 T01170023  RH  053%=      5-min Rain = 0
KUM1 171801Z 01014KT 12/02 A3021 RMK A01 T01160020  RH  052%=      5-min Rain = 0
KUM1 171802Z 01012KT 12/02 A3021 RMK A01 T01150020  RH  052%=      5-min Rain = 0
KUM1 171803Z 01014KT 12/02 A3021 RMK A01 T01160022  RH  052%=      5-min Rain = 0
KUM1 171804Z 03013KT 12/02 A3021 RMK A01 T01170023  RH  052%=      5-min Rain = 0
KUM1 171805Z 02013KT 12/03 A3021 RMK A01 T01200026  RH  052%=      5-min Rain = 0
KUM1 171806Z 03014KT 12/02 A3021 RMK A01 T01190021  RH  051%=      5-min Rain = 0
KUM1 171807Z 03013KT 12/02 A3021 RMK A01 T01160020  RH  052%=      5-min Rain = 0
KUM1 171808Z 03014KT 12/02 A3021 RMK A01 T01160022  RH  052%=      5-min Rain = 0
KUM1 171809Z 03012KT 12/02 A3021 RMK A01 T01150020  RH  052%=      5-min Rain = 0
KUM1 171810Z 04012KT 11/02 A3021 RMK A01 T01130020  RH  053%=      5-min Rain = 0
KUM1 171811Z 02013G19KT 11/02 A3021 RMK A01 T01140023  RH  054%=      5-min Rain = 0
KUM1 171812Z 02018KT 12/02 A3021 RMK A01 T01170022  RH  052%=      5-min Rain = 0
KUM1 171813Z 00015KT 12/02 A302 RMK A01 T01160021  RH  052%=      5-min Rain = 0
KUM1 171814Z 00014KT 12/02 A302 RMK A01 T01150021  RH  052%=      5-min Rain = 0
KUM1 171815Z 00013KT 12/02 A302 RMK A01 T01150021  RH  052%=      5-min Rain = 0
KUM1 171816Z 00013G18KT 12/02 A302 RMK A01 T01150022  RH  053%=      5-min Rain = 0
KUM1 171817Z 01015KT 12/02 A302 RMK A01 T01180024  RH  052%=      5-min Rain = 0
KUM1 171818Z 00016KT 12/02 A302 RMK A01 T01190020  RH  051%=      5-min Rain = 0
KUM1 171819Z 01012KT 12/02 A302 RMK A01 T01160020  RH  052%=      5-min Rain = 0
KUM1 171820Z 36015KT 12/02 A302 RMK A01 T01160021  RH  052%=      5-min Rain = 0
KUM1 171821Z 36014KT 12/02 A302 RMK A01 T01160021  RH  052%=      5-min Rain = 0
KUM1 171822Z 36012KT 12/02 A302 RMK A01 T01170021  RH  052%=      5-min Rain = 0
KUM1 171823Z 00014G20KT 12/02 A302 RMK A01 T01160020  RH  052%=      5-min Rain = 0
KUM1 171824Z 01016KT 12/02 A302 RMK A01 T01160021  RH  052%=      5-min Rain = 0
KUM1 171825Z 01012KT 12/02 A302 RMK A01 T01150019  RH  052%=      5-min Rain = 0
KUM1 171826Z 02008KT 11/02 A302 RMK A01 T01120018  RH  052%=      5-min Rain = 0
KUM1 171827Z 02006KT 11/02 A302 RMK A01 T01110021  RH  054%=      5-min Rain = 0
KUM1 171828Z 35008KT 12/03 A3019 RMK A01 T01150026  RH  054%=      5-min Rain = 0
KUM1 171829Z 35008KT 12/03 A3019 RMK A01 T01190025  RH  053%=      5-min Rain = 0
KUM1 171830Z 34009KT 12/03 A3019 RMK A01 T01220026  RH  052%=      5-min Rain = 0
KUM1 171831Z 35012KT 12/02 A3019 RMK A01 T01240022  RH  050%=      5-min Rain = 0
KUM1 171832Z 00011KT 12/02 A3019 RMK A01 T01230023  RH  050%=      5-min Rain = 0
KUM1 171833Z 36015KT 13/02 A3019 RMK A01 T01250023  RH  050%=      5-min Rain = 0
KUM1 171834Z 01013KT 12/02 A3019 RMK A01 T01220020  RH  050%=      5-min Rain = 0
KUM1 171835Z 01008KT 12/02 A3019 RMK A01 T01170019  RH  051%=      5-min Rain = 0
KUM1 171836Z 35009KT 12/02 A3019 RMK A01 T01170022  RH  052%=      5-min Rain = 0
KUM1 171837Z 00012KT 12/02 A3019 RMK A01 T01190021  RH  051%=      5-min Rain = 0
KUM1 171838Z 01013KT 12/02 A3019 RMK A01 T01220024  RH  051%=      5-min Rain = 0
KUM1 171839Z 01013KT 12/02 A3019 RMK A01 T01230021  RH  050%=      5-min Rain = 0
KUM1 171840Z 01014KT 12/02 A3019 RMK A01 T01210020  RH  050%=      5-min Rain = 0
KUM1 171841Z 02012KT 12/02 A3019 RMK A01 T01190019  RH  050%=      5-min Rain = 0
KUM1 171842Z 03009KT 12/02 A3018 RMK A01 T01170019  RH  051%=      5-min Rain = 0
KUM1 171843Z 03007KT 12/02 A3018 RMK A01 T01170023  RH  052%=      5-min Rain = 0
KUM1 171844Z 02008KT 12/02 A3018 RMK A01 T01180021  RH  052%=      5-min Rain = 0
KUM1 171845Z 00012KT 12/02 A3018 RMK A01 T01170020  RH  051%=      5-min Rain = 0
KUM1 171846Z 36013KT 12/02 A3018 RMK A01 T01190021  RH  051%=      5-min Rain = 0
KUM1 171847Z 01013KT 12/02 A3018 RMK A01 T01200020  RH  050%=      5-min Rain = 0
KUM1 171848Z 01010KT 12/02 A3018 RMK A01 T01200018  RH  050%=      5-min Rain = 0
KUM1 171849Z 01009KT 12/02 A3018 RMK A01 T01190019  RH  050%=      5-min Rain = 0
KUM1 171850Z 01006KT 12/02 A3018 RMK A01 T01200023  RH  052%=      5-min Rain = 0
KUM1 171851Z 35007KT 12/02 A3018 RMK A01 T01210020  RH  050%=      5-min Rain = 0
KUM1 171852Z 00009G14KT 12/02 A3017 RMK A01 T01210022  RH  051%=      5-min Rain = 0
KUM1 171853Z 03011KT 12/02 A3018 RMK A01 T01240022  RH  050%=      5-min Rain = 0
KUM1 171854Z 03011KT 12/02 A3018 RMK A01 T01220019  RH  049%=      5-min Rain = 0
KUM1 171855Z 02013KT 12/02 A3018 RMK A01 T01200019  RH  050%=      5-min Rain = 0
KUM1 171856Z 02011KT 12/02 A3018 RMK A01 T01200019  RH  050%=      5-min Rain = 0
KUM1 171857Z 01009KT 12/02 A3017 RMK A01 T01200019  RH  050%=      5-min Rain = 0
KUM1 171858Z 02010KT 12/02 A3017 RMK A01 T01200019  RH  050%=      5-min Rain = 0
KUM1 171859Z 02006KT 12/02 A3017 RMK A01 T01200023  RH  051%=      5-min Rain = 0
KUM1 171900Z 01006KT 12/03 A3017 RMK A01 T01240025  RH  051%=      5-min Rain = 0
KUM1 171901Z 35010KT 13/02 A3017 RMK A01 T01260024  RH  050%=      5-min Rain = 0
KUM1 171902Z 01008KT 13/02 A3017 RMK A01 T01270021  RH  048%=      5-min Rain = 0
KUM1 171903Z 02011KT 13/02 A3017 RMK A01 T01250019  RH  048%=      5-min Rain = 0
KUM1 171904Z 03009KT 12/02 A3017 RMK A01 T01230021  RH  050%=      5-min Rain = 0
KUM1 171905Z 03009KT 13/02 A3017 RMK A01 T01250023  RH  050%=      5-min Rain = 0
KUM1 171906Z 03008KT 13/02 A3017 RMK A01 T01260021  RH  049%=      5-min Rain = 0
KUM1 171907Z 01006KT 12/02 A3017 RMK A01 T01230017  RH  048%=      5-min Rain = 0
KUM1 171908Z 02007KT 12/02 A3016 RMK A01 T01220019  RH  049%=      5-min Rain = 0
KUM1 171909Z 00013KT 12/02 A3016 RMK A01 T01230019  RH  049%=      5-min Rain = 0
KUM1 171910Z 02014KT 13/02 A3016 RMK A01 T01250018  RH  048%=      5-min Rain = 0
KUM1 171911Z 02011KT 13/02 A3016 RMK A01 T01260019  RH  048%=      5-min Rain = 0
KUM1 171912Z 01011KT 13/02 A3016 RMK A01 T01260020  RH  048%=      5-min Rain = 0
KUM1 171913Z 02009KT 13/02 A3016 RMK A01 T01270021  RH  048%=      5-min Rain = 0
KUM1 171914Z 03008KT 13/02 A3016 RMK A01 T01270020  RH  048%=      5-min Rain = 0
KUM1 171915Z 00009KT 13/02 A3016 RMK A01 T01260020  RH  048%=      5-min Rain = 0
KUM1 171916Z 00008KT 13/02 A3016 RMK A01 T01270020  RH  048%=      5-min Rain = 0
KUM1 171917Z 35010KT 13/02 A3016 RMK A01 T01280019  RH  048%=      5-min Rain = 0
KUM1 171918Z 35007KT 13/02 A3016 RMK A01 T01260017  RH  048%=      5-min Rain = 0
KUM1 171919Z 34006KT 12/02 A3016 RMK A01 T01240019  RH  049%=      5-min Rain = 0
KUM1 171920Z 36006G12KT 13/02 A3016 RMK A01 T01260021  RH  049%=      5-min Rain = 0
KUM1 171921Z 02013KT 13/02 A3016 RMK A01 T01280022  RH  048%=      5-min Rain = 0
KUM1 171922Z 01012KT 13/02 A3016 RMK A01 T01290020  RH  047%=      5-min Rain = 0
KUM1 171923Z 01008KT 13/02 A3016 RMK A01 T01290020  RH  047%=      5-min Rain = 0
KUM1 171924Z 00006KT 13/02 A3016 RMK A01 T01280019  RH  047%=      5-min Rain = 0
KUM1 171925Z 36006KT 13/02 A3015 RMK A01 T01270017  RH  047%=      5-min Rain = 0
KUM1 171926Z 02007KT 13/02 A3015 RMK A01 T01260016  RH  047%=      5-min Rain = 0
KUM1 171927Z 02009KT 13/02 A3015 RMK A01 T01270020  RH  048%=      5-min Rain = 0
KUM1 171928Z 04009KT 13/02 A3015 RMK A01 T01290018  RH  047%=      5-min Rain = 0
KUM1 171929Z 05008KT 13/02 A3015 RMK A01 T01290016  RH  046%=      5-min Rain = 0
KUM1 171930Z 05007KT 13/02 A3015 RMK A01 T01280017  RH  047%=      5-min Rain = 0
KUM1 171931Z 02008KT 13/02 A3015 RMK A01 T01270016  RH  047%=      5-min Rain = 0
KUM1 171932Z 33007KT 13/02 A3015 RMK A01 T01270016  RH  047%=      5-min Rain = 0
KUM1 171933Z 35007KT 13/02 A3015 RMK A01 T01270015  RH  046%=      5-min Rain = 0
KUM1 171934Z 01011KT 13/02 A3015 RMK A01 T01300020  RH  047%=      5-min Rain = 0
KUM1 171935Z 00010KT 13/02 A3015 RMK A01 T01320016  RH  045%=      5-min Rain = 0
KUM1 171936Z 01008KT 13/01 A3015 RMK A01 T01300014  RH  045%=      5-min Rain = 0
KUM1 171937Z 02008KT 13/01 A3015 RMK A01 T01280012  RH  045%=      5-min Rain = 0
KUM1 171938Z 03007KT 13/01 A3015 RMK A01 T01250012  RH  046%=      5-min Rain = 0
KUM1 171939Z 02008KT 13/02 A3015 RMK A01 T01250015  RH  047%=      5-min Rain = 0
KUM1 171940Z 02010KT 13/02 A3015 RMK A01 T01280019  RH  048%=      5-min Rain = 0
KUM1 171941Z 01007KT 13/02 A3014 RMK A01 T01300018  RH  046%=      5-min Rain = 0
KUM1 171942Z 36007KT 13/02 A3014 RMK A01 T01300015  RH  045%=      5-min Rain = 0
KUM1 171943Z 34007KT 13/02 A3014 RMK A01 T01300016  RH  046%=      5-min Rain = 0
KUM1 171944Z 35004KT 13/01 A3014 RMK A01 T01310012  RH  044%=      5-min Rain = 0
KUM1 171945Z 35007KT 13/01 A3014 RMK A01 T01310014  RH  045%=      5-min Rain = 0
KUM1 171946Z 03009KT 13/02 A3014 RMK A01 T01330016  RH  045%=      5-min Rain = 0
KUM1 171947Z 04008KT 13/02 A3014 RMK A01 T01330017  RH  045%=      5-min Rain = 0
KUM1 171948Z 04008KT 13/02 A3014 RMK A01 T01330016  RH  045%=      5-min Rain = 0
KUM1 171949Z 01006KT 13/02 A3014 RMK A01 T01320016  RH  045%=      5-min Rain = 0
KUM1 171950Z 02009KT 13/02 A3014 RMK A01 T01320016  RH  045%=      5-min Rain = 0
KUM1 171951Z 01008KT 13/02 A3014 RMK A01 T01310017  RH  046%=      5-min Rain = 0
KUM1 171952Z 01007KT 13/02 A3014 RMK A01 T01310016  RH  045%=      5-min Rain = 0
KUM1 171953Z 00006KT 13/02 A3013 RMK A01 T01310018  RH  046%=      5-min Rain = 0
KUM1 171954Z 02004KT 13/02 A3013 RMK A01 T01330021  RH  047%=      5-min Rain = 0
KUM1 171955Z 00003KT 13/02 A3013 RMK A01 T01340019  RH  046%=      5-min Rain = 0
KUM1 171956Z 01005G10KT 13/02 A3013 RMK A01 T01340020  RH  046%=      5-min Rain = 0
KUM1 171957Z 00009KT 13/02 A3013 RMK A01 T01340019  RH  045%=      5-min Rain = 0
KUM1 171958Z 36008KT 13/02 A3013 RMK A01 T01330016  RH  045%=      5-min Rain = 0
KUM1 171959Z 00007KT 13/02 A3013 RMK A01 T01330017  RH  045%=      5-min Rain = 0
KUM1 172000Z 00005KT 13/02 A3013 RMK A01 T01320015  RH  045%=      5-min Rain = 0
KUM1 172001Z 02004KT 13/02 A3013 RMK A01 T01310017  RH  046%=      5-min Rain = 0
KUM1 172002Z 00005KT 13/02 A3013 RMK A01 T01310016  RH  045%=      5-min Rain = 0
KUM1 172003Z 35009KT 13/02 A3013 RMK A01 T01320018  RH  046%=      5-min Rain = 0
KUM1 172004Z 35006KT 13/02 A3013 RMK A01 T01330015  RH  045%=      5-min Rain = 0
KUM1 172005Z 33005KT 13/01 A3013 RMK A01 T01320014  RH  045%=      5-min Rain = 0
KUM1 172006Z 32005KT 13/01 A3013 RMK A01 T01310014  RH  045%=      5-min Rain = 0
KUM1 172007Z 33002KT 13/01 A3012 RMK A01 T01320013  RH  044%=      5-min Rain = 0
KUM1 172008Z 33003KT 13/02 A3012 RMK A01 T01320016  RH  045%=      5-min Rain = 0
KUM1 172009Z 35005KT 13/01 A3012 RMK A01 T01320013  RH  044%=      5-min Rain = 0
KUM1 172010Z 03006KT 13/02 A3012 RMK A01 T01320015  RH  045%=      5-min Rain = 0
KUM1 172011Z 03007KT 13/01 A3012 RMK A01 T01320012  RH  044%=      5-min Rain = 0
KUM1 172012Z 02006KT 13/01 A3012 RMK A01 T01320012  RH  044%=      5-min Rain = 0
KUM1 172013Z 02005KT 13/01 A3012 RMK A01 T01310012  RH  044%=      5-min Rain = 0
KUM1 172014Z 03004KT 13/01 A3012 RMK A01 T01310011  RH  044%=      5-min Rain = 0
KUM1 172015Z 02003KT 13/01 A3012 RMK A01 T01310013  RH  045%=      5-min Rain = 0
KUM1 172016Z 36002KT 13/02 A3012 RMK A01 T01330015  RH  045%=      5-min Rain = 0
KUM1 172017Z 04004KT 13/02 A3012 RMK A01 T01340015  RH  044%=      5-min Rain = 0
KUM1 172018Z 02005KT 13/01 A3012 RMK A01 T01340012  RH  043%=      5-min Rain = 0
KUM1 172019Z 00005KT 13/01 A3012 RMK A01 T01330014  RH  044%=      5-min Rain = 0
KUM1 172020Z 36008KT 13/01 A3012 RMK A01 T01340013  RH  044%=      5-min Rain = 0
KUM1 172021Z 35006KT 13/01 A3012 RMK A01 T01340011  RH  043%=      5-min Rain = 0
KUM1 172022Z 33006KT 13/01 A3012 RMK A01 T01330010  RH  043%=      5-min Rain = 0
KUM1 172023Z 34005KT 13/01 A3012 RMK A01 T01340009  RH  042%=      5-min Rain = 0
KUM1 172024Z 01008KT 14/01 A3012 RMK A01 T01360014  RH  044%=      5-min Rain = 0
KUM1 172025Z 00008KT 14/02 A3012 RMK A01 T01370015  RH  043%=      5-min Rain = 0
KUM1 172026Z 00007KT 14/02 A3012 RMK A01 T01350016  RH  044%=      5-min Rain = 0
KUM1 172027Z 36007KT 14/02 A3012 RMK A01 T01350016  RH  044%=      5-min Rain = 0
KUM1 172028Z 00006KT 14/01 A3012 RMK A01 T01360013  RH  043%=      5-min Rain = 0
KUM1 172029Z 01007KT 14/02 A3012 RMK A01 T01360016  RH  044%=      5-min Rain = 0
KUM1 172030Z 35006KT 14/01 A3012 RMK A01 T01360013  RH  043%=      5-min Rain = 0
KUM1 172031Z 35005KT 13/01 A3012 RMK A01 T01340013  RH  044%=      5-min Rain = 0
KUM1 172032Z 33003KT 13/01 A3012 RMK A01 T01330013  RH  044%=      5-min Rain = 0
KUM1 172033Z 35002KT 13/01 A3012 RMK A01 T01330011  RH  043%=      5-min Rain = 0
KUM1 172034Z 35002KT 13/01 A3011 RMK A01 T01330011  RH  044%=      5-min Rain = 0
KUM1 172035Z 03002KT 13/01 A3011 RMK A01 T01320012  RH  044%=      5-min Rain = 0
KUM1 172036Z 02003KT 13/02 A3011 RMK A01 T01320016  RH  045%=      5-min Rain = 0
KUM1 172037Z 35003KT 13/02 A3011 RMK A01 T01340015  RH  044%=      5-min Rain = 0
KUM1 172038Z 04003KT 14/01 A3011 RMK A01 T01350011  RH  043%=      5-min Rain = 0
KUM1 172039Z 05004KT 14/01 A3011 RMK A01 T01350011  RH  043%=      5-min Rain = 0
KUM1 172040Z 09001KT 13/01 A3011 RMK A01 T01340011  RH  043%=      5-min Rain = 0
KUM1 172041Z 11003KT 13/01 A3011 RMK A01 T01340009  RH  043%=      5-min Rain = 0
KUM1 172042Z 06002KT 13/01 A3011 RMK A01 T01330008  RH  042%=      5-min Rain = 0
KUM1 172043Z 06002KT 13/02 A3011 RMK A01 T01340016  RH  045%=      5-min Rain = 0
KUM1 172044Z 07004KT 14/01 A3011 RMK A01 T01360011  RH  042%=      5-min Rain = 0
KUM1 172045Z 08005KT 14/00 A3011 RMK A01 T01360004  RH  040%=      5-min Rain = 0
KUM1 172046Z 06002KT 14/01 A3011 RMK A01 T01360006  RH  041%=      5-min Rain = 0
KUM1 172047Z 06002KT 14/01 A3011 RMK A01 T01360008  RH  041%=      5-min Rain = 0
KUM1 172048Z 04001KT 14/00 A3011 RMK A01 T01360004  RH  040%=      5-min Rain = 0
KUM1 172049Z 03001KT 14/00 A3011 RMK A01 T01360004  RH  040%=      5-min Rain = 0
KUM1 172050Z 00003KT 14/01 A3011 RMK A01 T01360007  RH  041%=      5-min Rain = 0
KUM1 172051Z 02003KT 14/01 A3011 RMK A01 T01380014  RH  043%=      5-min Rain = 0
KUM1 172052Z 02005KT 14/01 A3011 RMK A01 T01380008  RH  041%=      5-min Rain = 0
KUM1 172053Z 01006KT 14/01 A3011 RMK A01 T01370010  RH  042%=      5-min Rain = 0
KUM1 172054Z 02005KT 14/01 A3011 RMK A01 T01370007  RH  041%=      5-min Rain = 0
KUM1 172055Z 02003KT 14/01 A3011 RMK A01 T01350007  RH  041%=      5-min Rain = 0
KUM1 172056Z 01002KT 14/01 A3011 RMK A01 T01350010  RH  042%=      5-min Rain = 0
KUM1 172057Z 01000KT 14/01 A3011 RMK A01 T01360009  RH  042%=      5-min Rain = 0
KUM1 172058Z 36001KT 14/01 A301 RMK A01 T01370009  RH  042%=      5-min Rain = 0
KUM1 172059Z 35003KT 14/01 A301 RMK A01 T01380009  RH  042%=      5-min Rain = 0
KUM1 172100Z 02002KT 14/01 A3011 RMK A01 T01380008  RH  041%=      5-min Rain = 0
KUM1 172101Z 34002KT 14/01 A301 RMK A01 T01380010  RH  042%=      5-min Rain = 0
KUM1 172102Z 35000KT 14/01 A301 RMK A01 T01380006  RH  041%=      5-min Rain = 0
KUM1 172103Z 02000KT 14/01 A301 RMK A01 T01380007  RH  041%=      5-min Rain = 0
KUM1 172104Z 09001KT 14/01 A301 RMK A01 T01380006  RH  041%=      5-min Rain = 0
KUM1 172105Z 06002KT 14/01 A301 RMK A01 T01380008  RH  041%=      5-min Rain = 0
KUM1 172106Z 03003KT 14/01 A3011 RMK A01 T01390013  RH  042%=      5-min Rain = 0
KUM1 172107Z 04006KT 14/01 A3011 RMK A01 T01390014  RH  043%=      5-min Rain = 0
KUM1 172108Z 04005KT 14/01 A3011 RMK A01 T01410011  RH  041%=      5-min Rain = 0
KUM1 172109Z 03004KT 14/01 A3011 RMK A01 T01390009  RH  041%=      5-min Rain = 0
KUM1 172110Z 02004KT 14/01 A3011 RMK A01 T01380013  RH  043%=      5-min Rain = 0
KUM1 172111Z 00003KT 14/01 A3011 RMK A01 T01390012  RH  042%=      5-min Rain = 0
KUM1 172112Z 02002KT 14/01 A3011 RMK A01 T01400012  RH  041%=      5-min Rain = 0
KUM1 172113Z 02004KT 14/01 A3011 RMK A01 T01420014  RH  042%=      5-min Rain = 0
KUM1 172114Z 01006KT 14/01 A3011 RMK A01 T01430014  RH  042%=      5-min Rain = 0
KUM1 172115Z 01006KT 14/01 A3011 RMK A01 T01420012  RH  041%=      5-min Rain = 0
KUM1 172116Z 03005KT 14/01 A3011 RMK A01 T01400010  RH  041%=      5-min Rain = 0
KUM1 172117Z 03004KT 14/01 A301 RMK A01 T01390010  RH  041%=      5-min Rain = 0
KUM1 172118Z 03005KT 14/01 A301 RMK A01 T01380010  RH  042%=      5-min Rain = 0
KUM1 172119Z 02005KT 14/01 A301 RMK A01 T01380010  RH  042%=      5-min Rain = 0
KUM1 172120Z 02002KT 14/01 A301 RMK A01 T01380008  RH  041%=      5-min Rain = 0
KUM1 172121Z 02002KT 14/01 A301 RMK A01 T01380007  RH  041%=      5-min Rain = 0
KUM1 172122Z 06001KT 14/01 A301 RMK A01 T01380006  RH  041%=      5-min Rain = 0
KUM1 172123Z 06001KT 14/01 A301 RMK A01 T01380008  RH  041%=      5-min Rain = 0
KUM1 172124Z 03001KT 14/01 A301 RMK A01 T01380009  RH  041%=      5-min Rain = 0
KUM1 172125Z 01003KT 14/01 A301 RMK A01 T01390010  RH  041%=      5-min Rain = 0
KUM1 172126Z 03003KT 14/01 A301 RMK A01 T01390009  RH  041%=      5-min Rain = 0
KUM1 172127Z 02002KT 14/01 A301 RMK A01 T01400011  RH  041%=      5-min Rain = 0
KUM1 172128Z 02004KT 14/01 A301 RMK A01 T01400010  RH  041%=      5-min Rain = 0
KUM1 172129Z 03002KT 14/01 A301 RMK A01 T01400008  RH  040%=      5-min Rain = 0
KUM1 172130Z 02002KT 14/01 A301 RMK A01 T01390007  RH  041%=      5-min Rain = 0
KUM1 172131Z 03002KT 14/01 A301 RMK A01 T01400009  RH  041%=      5-min Rain = 0
KUM1 172132Z 01003KT 14/01 A301 RMK A01 T01400011  RH  041%=      5-min Rain = 0
KUM1 172133Z 01002KT 14/01 A301 RMK A01 T01410011  RH  041%=      5-min Rain = 0
KUM1 172134Z 02004KT 14/01 A301 RMK A01 T01430011  RH  041%=      5-min Rain = 0
KUM1 172135Z 01005KT 14/01 A301 RMK A01 T01410009  RH  040%=      5-min Rain = 0
KUM1 172136Z 00003KT 14/01 A301 RMK A01 T01400011  RH  041%=      5-min Rain = 0
KUM1 172137Z 01003KT 14/01 A301 RMK A01 T01410010  RH  041%=      5-min Rain = 0
KUM1 172138Z 36003KT 14/01 A301 RMK A01 T01400007  RH  040%=      5-min Rain = 0
KUM1 172139Z 00004KT 14/01 A301 RMK A01 T01400010  RH  041%=      5-min Rain = 0
KUM1 172140Z 00004KT 14/01 A301 RMK A01 T01400010  RH  041%=      5-min Rain = 0
KUM1 172141Z 02004KT 14/01 A301 RMK A01 T01420011  RH  041%=      5-min Rain = 0
KUM1 172142Z 35004KT 14/01 A301 RMK A01 T01410011  RH  041%=      5-min Rain = 0
KUM1 172143Z 34002KT 14/01 A301 RMK A01 T01410010  RH  041%=      5-min Rain = 0
KUM1 172144Z 03004KT 14/01 A301 RMK A01 T01420009  RH  040%=      5-min Rain = 0
KUM1 172145Z 04003KT 14/01 A301 RMK A01 T01410009  RH  040%=      5-min Rain = 0
KUM1 172146Z 05004KT 14/01 A301 RMK A01 T01410010  RH  041%=      5-min Rain = 0
KUM1 172147Z 05004KT 14/01 A301 RMK A01 T01390008  RH  041%=      5-min Rain = 0
KUM1 172148Z 06003KT 14/01 A301 RMK A01 T01390009  RH  041%=      5-min Rain = 0
KUM1 172149Z 06001KT 14/01 A301 RMK A01 T01380007  RH  041%=      5-min Rain = 0
KUM1 172150Z 07001KT 14/01 A301 RMK A01 T01380009  RH  041%=      5-min Rain = 0
KUM1 172151Z 32003KT 14/01 A301 RMK A01 T01390008  RH  041%=      5-min Rain = 0
KUM1 172152Z 33002KT 14/01 A301 RMK A01 T01400009  RH  041%=      5-min Rain = 0
KUM1 172153Z 32001KT 14/01 A301 RMK A01 T01410010  RH  041%=      5-min Rain = 0
KUM1 172154Z 01002KT 14/01 A301 RMK A01 T01420013  RH  042%=      5-min Rain = 0
KUM1 172155Z 36001KT 14/01 A301 RMK A01 T01420009  RH  040%=      5-min Rain = 0
KUM1 172156Z 01002KT 14/01 A301 RMK A01 T01420008  RH  040%=      5-min Rain = 0
KUM1 172157Z 34002KT 14/01 A301 RMK A01 T01420008  RH  040%=      5-min Rain = 0
KUM1 172158Z 33003KT 14/01 A301 RMK A01 T01420010  RH  041%=      5-min Rain = 0
KUM1 172159Z 01004KT 14/01 A301 RMK A01 T01420009  RH  040%=      5-min Rain = 0
KUM1 172200Z 02002KT 14/01 A301 RMK A01 T01410008  RH  040%=      5-min Rain = 0
KUM1 172201Z 02002KT 14/01 A301 RMK A01 T01410012  RH  042%=      5-min Rain = 0
KUM1 172202Z 00004KT 14/01 A301 RMK A01 T01420012  RH  041%=      5-min Rain = 0
KUM1 172203Z 36005KT 14/01 A301 RMK A01 T01420010  RH  041%=      5-min Rain = 0
KUM1 172204Z 34006KT 14/01 A301 RMK A01 T01410011  RH  041%=      5-min Rain = 0
KUM1 172205Z 33005KT 14/01 A301 RMK A01 T01410013  RH  042%=      5-min Rain = 0
KUM1 172206Z 33005KT 14/01 A301 RMK A01 T01430013  RH  041%=      5-min Rain = 0
KUM1 172207Z 34003KT 14/01 A301 RMK A01 T01430012  RH  041%=      5-min Rain = 0
KUM1 172208Z 34003KT 14/01 A301 RMK A01 T01430009  RH  040%=      5-min Rain = 0
KUM1 172209Z 33002KT 14/01 A3011 RMK A01 T01420009  RH  040%=      5-min Rain = 0
KUM1 172210Z 00000KT 14/01 A301 RMK A01 T01420010  RH  041%=      5-min Rain = 0
KUM1 172211Z 00000KT 14/01 A301 RMK A01 T01420009  RH  040%=      5-min Rain = 0
KUM1 172212Z 30001KT 14/01 A301 RMK A01 T01440009  RH  040%=      5-min Rain = 0
KUM1 172213Z 35002KT 15/01 A301 RMK A01 T01450010  RH  040%=      5-min Rain = 0
KUM1 172214Z 00002KT 15/01 A301 RMK A01 T01450009  RH  040%=      5-min Rain = 0
KUM1 172215Z 35000KT 14/01 A301 RMK A01 T01440011  RH  040%=      5-min Rain = 0
KUM1 172216Z 00000KT 14/01 A301 RMK A01 T01440009  RH  040%=      5-min Rain = 0
KUM1 172217Z 00000KT 15/01 A301 RMK A01 T01450009  RH  040%=      5-min Rain = 0
KUM1 172218Z 00000KT 15/01 A301 RMK A01 T01470010  RH  039%=      5-min Rain = 0
KUM1 172219Z 32001KT 15/01 A3011 RMK A01 T01480009  RH  039%=      5-min Rain = 0
KUM1 172220Z 28003KT 15/01 A3011 RMK A01 T01470010  RH  039%=      5-min Rain = 0
KUM1 172221Z 27003KT 15/01 A3011 RMK A01 T01460009  RH  039%=      5-min Rain = 0
KUM1 172222Z 28003KT 15/01 A3011 RMK A01 T01450008  RH  039%=      5-min Rain = 0
KUM1 172223Z 28003KT 14/01 A3011 RMK A01 T01440009  RH  040%=      5-min Rain = 0
KUM1 172224Z 28002KT 14/01 A3011 RMK A01 T01430009  RH  040%=      5-min Rain = 0
KUM1 172225Z 27003KT 14/01 A3011 RMK A01 T01440010  RH  040%=      5-min Rain = 0
KUM1 172226Z 26003KT 14/01 A3011 RMK A01 T01440008  RH  040%=      5-min Rain = 0
KUM1 172227Z 26002KT 14/01 A3011 RMK A01 T01440008  RH  040%=      5-min Rain = 0
KUM1 172228Z 25000KT 14/01 A3011 RMK A01 T01430006  RH  039%=      5-min Rain = 0
KUM1 172229Z 21001KT 14/01 A3011 RMK A01 T01430007  RH  039%=      5-min Rain = 0
KUM1 172230Z 24001KT 14/01 A3011 RMK A01 T01440008  RH  039%=      5-min Rain = 0
KUM1 172231Z 32003KT 15/01 A3011 RMK A01 T01450008  RH  039%=      5-min Rain = 0
KUM1 172232Z 32005KT 15/01 A3011 RMK A01 T01450010  RH  040%=      5-min Rain = 0
KUM1 172233Z 32005KT 14/01 A3011 RMK A01 T01440009  RH  040%=      5-min Rain = 0
KUM1 172234Z 32004KT 14/01 A3011 RMK A01 T01420007  RH  040%=      5-min Rain = 0
KUM1 172235Z 31003KT 14/01 A3011 RMK A01 T01410007  RH  040%=      5-min Rain = 0
KUM1 172236Z 33003KT 14/01 A3011 RMK A01 T01410008  RH  040%=      5-min Rain = 0
KUM1 172237Z 34003KT 14/01 A3011 RMK A01 T01410008  RH  040%=      5-min Rain = 0
KUM1 172238Z 33002KT 14/01 A3011 RMK A01 T01400008  RH  040%=      5-min Rain = 0
KUM1 172239Z 33003KT 14/01 A3011 RMK A01 T01400007  RH  040%=      5-min Rain = 0
KUM1 172240Z 32003KT 14/01 A3011 RMK A01 T01400007  RH  040%=      5-min Rain = 0
KUM1 172241Z 30002KT 14/01 A3011 RMK A01 T01400007  RH  040%=      5-min Rain = 0
KUM1 172242Z 32003KT 14/01 A3011 RMK A01 T01410008  RH  040%=      5-min Rain = 0
KUM1 172243Z 32004KT 14/01 A3011 RMK A01 T01400006  RH  040%=      5-min Rain = 0
KUM1 172244Z 32003KT 14/01 A3011 RMK A01 T01400007  RH  040%=      5-min Rain = 0
KUM1 172245Z 32001KT 14/01 A3011 RMK A01 T01390007  RH  040%=      5-min Rain = 0
KUM1 172246Z 33000KT 14/01 A3011 RMK A01 T01380007  RH  041%=      5-min Rain = 0
KUM1 172247Z 00000KT 14/01 A3011 RMK A01 T01380008  RH  041%=      5-min Rain = 0
KUM1 172248Z 00000KT 14/01 A3011 RMK A01 T01380008  RH  041%=      5-min Rain = 0
KUM1 172249Z 00000KT 14/01 A3011 RMK A01 T01380011  RH  042%=      5-min Rain = 0
KUM1 172250Z 29000KT 14/01 A3011 RMK A01 T01380007  RH  041%=      5-min Rain = 0
KUM1 172251Z 29002KT 14/01 A3011 RMK A01 T01380007  RH  041%=      5-min Rain = 0
KUM1 172252Z 28002KT 14/01 A3011 RMK A01 T01390008  RH  041%=      5-min Rain = 0
KUM1 172253Z 27002KT 14/01 A3011 RMK A01 T01390008  RH  041%=      5-min Rain = 0
KUM1 172254Z 27002KT 14/01 A3011 RMK A01 T01390008  RH  041%=      5-min Rain = 0
KUM1 172255Z 27001KT 14/01 A3011 RMK A01 T01390007  RH  041%=      5-min Rain = 0
KUM1 172256Z 27000KT 14/01 A3011 RMK A01 T01390007  RH  040%=      5-min Rain = 0
KUM1 172257Z 29000KT 14/01 A3011 RMK A01 T01390007  RH  040%=      5-min Rain = 0
KUM1 172258Z 29000KT 14/01 A3011 RMK A01 T01390006  RH  040%=      5-min Rain = 0
KUM1 172259Z 00000KT 14/01 A3011 RMK A01 T01410007  RH  040%=      5-min Rain = 0
KUM1 172300Z 29000KT 14/01 A301 RMK A01 T01430008  RH  040%=      5-min Rain = 0
KUM1 172301Z 32002KT 14/01 A301 RMK A01 T01440008  RH  040%=      5-min Rain = 0
KUM1 172302Z 31002KT 14/01 A301 RMK A01 T01440009  RH  040%=      5-min Rain = 0
KUM1 172303Z 30002KT 14/01 A301 RMK A01 T01420008  RH  040%=      5-min Rain = 0
KUM1 172304Z 31002KT 14/01 A301 RMK A01 T01400007  RH  040%=      5-min Rain = 0
KUM1 172305Z 32003KT 14/01 A301 RMK A01 T01390008  RH  041%=      5-min Rain = 0
KUM1 172306Z 32002KT 14/01 A301 RMK A01 T01380008  RH  041%=      5-min Rain = 0
KUM1 172307Z 32001KT 14/01 A301 RMK A01 T01370006  RH  041%=      5-min Rain = 0
KUM1 172308Z 32001KT 14/01 A3011 RMK A01 T01360005  RH  041%=      5-min Rain = 0
KUM1 172309Z 32001KT 14/01 A3011 RMK A01 T01360005  RH  041%=      5-min Rain = 0
KUM1 172310Z 32001KT 14/01 A3011 RMK A01 T01360005  RH  041%=      5-min Rain = 0
KUM1 172311Z 32001KT 14/01 A3011 RMK A01 T01350006  RH  041%=      5-min Rain = 0
KUM1 172312Z 30001KT 14/01 A3011 RMK A01 T01350006  RH  041%=      5-min Rain = 0
KUM1 172313Z 27001KT 14/01 A301 RMK A01 T01350006  RH  041%=      5-min Rain = 0
KUM1 172314Z 25000KT 14/01 A301 RMK A01 T01360006  RH  041%=      5-min Rain = 0
KUM1 172315Z 26000KT 14/01 A301 RMK A01 T01370006  RH  041%=      5-min Rain = 0
KUM1 172316Z 28001KT 14/01 A301 RMK A01 T01380007  RH  041%=      5-min Rain = 0
KUM1 172317Z 29000KT 14/01 A301 RMK A01 T01370006  RH  041%=      5-min Rain = 0
KUM1 172318Z 29000KT 14/01 A301 RMK A01 T01360007  RH  041%=      5-min Rain = 0
KUM1 172319Z 29001KT 14/01 A301 RMK A01 T01360007  RH  041%=      5-min Rain = 0
KUM1 172320Z 29001KT 14/01 A3011 RMK A01 T01350006  RH  042%=      5-min Rain = 0
KUM1 172321Z 29001KT 13/01 A3011 RMK A01 T01340006  RH  042%=      5-min Rain = 0
KUM1 172322Z 29001KT 13/01 A3011 RMK A01 T01330006  RH  042%=      5-min Rain = 0
KUM1 172323Z 29001KT 13/01 A3011 RMK A01 T01330007  RH  042%=      5-min Rain = 0
KUM1 172324Z 29001KT 13/01 A3011 RMK A01 T01330007  RH  042%=      5-min Rain = 0
KUM1 172325Z 29001KT 13/01 A3011 RMK A01 T01320006  RH  042%=      5-min Rain = 0
KUM1 172326Z 28001KT 13/01 A3011 RMK A01 T01310006  RH  042%=      5-min Rain = 0
KUM1 172327Z 28001KT 13/01 A3011 RMK A01 T01300005  RH  042%=      5-min Rain = 0
KUM1 172328Z 28000KT 13/00 A3011 RMK A01 T01290004  RH  042%=      5-min Rain = 0
KUM1 172329Z 28001KT 13/00 A3011 RMK A01 T01290004  RH  042%=      5-min Rain = 0
KUM1 172330Z 28001KT 13/00 A301 RMK A01 T01280004  RH  042%=      5-min Rain = 0
KUM1 172331Z 28000KT 13/00 A301 RMK A01 T01280004  RH  043%=      5-min Rain = 0
KUM1 172332Z 28000KT 13/00 A301 RMK A01 T01280004  RH  043%=      5-min Rain = 0
KUM1 172333Z 00000KT 13/00 A301 RMK A01 T01270004  RH  043%=      5-min Rain = 0
KUM1 172334Z 00000KT 13/00 A301 RMK A01 T01270004  RH  043%=      5-min Rain = 0
KUM1 172335Z 00000KT 13/00 A301 RMK A01 T01260004  RH  043%=      5-min Rain = 0
KUM1 172336Z 22001KT 12/00 A301 RMK A01 T01240003  RH  043%=      5-min Rain = 0
KUM1 172337Z 21002KT 12/00 A301 RMK A01 T01200002  RH  044%=      5-min Rain = 0
KUM1 172338Z 21002KT 12/00 A301 RMK A01 T01180002  RH  045%=      5-min Rain = 0
KUM1 172339Z 21002KT 12/00 A301 RMK A01 T01180003  RH  045%=      5-min Rain = 0
KUM1 172340Z 21001KT 12/00 A301 RMK A01 T01190003  RH  045%=      5-min Rain = 0
KUM1 172341Z 21002KT 12/00 A301 RMK A01 T01170003  RH  045%=      5-min Rain = 0
KUM1 172342Z 21001KT 12/00 A301 RMK A01 T01160003  RH  046%=      5-min Rain = 0
KUM1 172343Z 21001KT 12/00 A301 RMK A01 T01150003  RH  046%=      5-min Rain = 0
KUM1 172344Z 21001KT 12/00 A301 RMK A01 T01160004  RH  046%=      5-min Rain = 0
KUM1 172345Z 21002KT 12/00 A301 RMK A01 T01160003  RH  046%=      5-min Rain = 0
KUM1 172346Z 21002KT 12/00 A301 RMK A01 T01150003  RH  046%=      5-min Rain = 0
KUM1 172347Z 21002KT 11/00 A301 RMK A01 T01140004  RH  047%=      5-min Rain = 0
KUM1 172348Z 21001KT 11/00 A301 RMK A01 T01140003  RH  046%=      5-min Rain = 0
KUM1 172349Z 21001KT 11/00 A301 RMK A01 T01120002  RH  047%=      5-min Rain = 0
KUM1 172350Z 21001KT 11/00 A301 RMK A01 T01110003  RH  047%=      5-min Rain = 0
KUM1 172351Z 21002KT 11/00 A301 RMK A01 T01100003  RH  048%=      5-min Rain = 0
KUM1 172352Z 21002KT 11/01 A301 RMK A01 T01080006  RH  049%=      5-min Rain = 0
KUM1 172353Z 21002KT 11/01 A301 RMK A01 T01060010  RH  051%=      5-min Rain = 0
KUM1 172354Z 21001KT 11/01 A301 RMK A01 T01060010  RH  051%=      5-min Rain = 0
KUM1 172355Z 22002KT 11/01 A301 RMK A01 T01060009  RH  051%=      5-min Rain = 0
KUM1 172356Z 23003KT 10/01 A301 RMK A01 T01040006  RH  051%=      5-min Rain = 0
KUM1 172357Z 23003KT 10/01 A301 RMK A01 T01030006  RH  051%=      5-min Rain = 0
KUM1 172358Z 23003KT 10/01 A301 RMK A01 T01030007  RH  051%=      5-min Rain = 0
KUM1 172359Z 23004KT 10/01 A301 RMK A01 T01020006  RH  051%=      5-min Rain = 0
KUM1 180000Z 23004KT 10/01 A301 RMK A01 T01010007  RH  052%=      5-min Rain = 0
KUM1 180001Z 23003KT 10/01 A301 RMK A01 T01000007  RH  052%=      5-min Rain = 0
KUM1 180002Z 23003KT 10/01 A301 RMK A01 T00990006  RH  052%=      5-min Rain = 0
KUM1 180003Z 23003KT 10/01 A301 RMK A01 T00970006  RH  053%=      5-min Rain = 0
KUM1 180004Z 23003KT 10/01 A301 RMK A01 T00960006  RH  054%=      5-min Rain = 0
KUM1 180005Z 23003KT 10/01 A301 RMK A01 T00960007  RH  054%=      5-min Rain = 0
KUM1 180006Z 24003KT 09/01 A301 RMK A01 T00940005  RH  054%=      5-min Rain = 0
KUM1 180007Z 23003KT 09/01 A301 RMK A01 T00920005  RH  054%=      5-min Rain = 0
KUM1 180008Z 23003KT 09/01 A301 RMK A01 T00910005  RH  055%=      5-min Rain = 0
KUM1 180009Z 23003KT 09/00 A301 RMK A01 T00900004  RH  055%=      5-min Rain = 0
KUM1 180010Z 22003KT 09/00 A301 RMK A01 T00900004  RH  055%=      5-min Rain = 0
KUM1 180011Z 21003KT 09/00 A301 RMK A01 T00880002  RH  055%=      5-min Rain = 0
KUM1 180012Z 21004KT 08/M00 A301 RMK A01 T00841004  RH  054%=      5-min Rain = 0
KUM1 180013Z 21004KT 08/M01 A301 RMK A01 T00821005  RH  054%=      5-min Rain = 0
KUM1 180014Z 21004KT 08/M01 A301 RMK A01 T00811007  RH  054%=      5-min Rain = 0
KUM1 180015Z 20004KT 08/M01 A301 RMK A01 T00781009  RH  054%=      5-min Rain = 0
KUM1 180016Z 20004KT 08/M01 A301 RMK A01 T00761009  RH  055%=      5-min Rain = 0
KUM1 180017Z 19003KT 07/M01 A301 RMK A01 T00741010  RH  055%=      5-min Rain = 0
KUM1 180018Z 19004KT 07/M01 A301 RMK A01 T00731011  RH  055%=      5-min Rain = 0
KUM1 180019Z 19004KT 07/M01 A301 RMK A01 T00711011  RH  056%=      5-min Rain = 0
KUM1 180020Z 20004KT 07/M01 A301 RMK A01 T00701011  RH  057%=      5-min Rain = 0
KUM1 180021Z 20004KT 07/M01 A301 RMK A01 T00701009  RH  057%=      5-min Rain = 0
KUM1 180022Z 20003KT 07/M01 A301 RMK A01 T00701009  RH  057%=      5-min Rain = 0
KUM1 180023Z 21004KT 07/M01 A301 RMK A01 T00701008  RH  057%=      5-min Rain = 0
KUM1 180024Z 21004KT 07/M01 A301 RMK A01 T00721006  RH  058%=      5-min Rain = 0
KUM1 180025Z 21004KT 08/M01 A301 RMK A01 T00751005  RH  057%=      5-min Rain = 0
KUM1 180026Z 21004KT 08/M01 A301 RMK A01 T00761006  RH  056%=      5-min Rain = 0
KUM1 180027Z 22004KT 08/M01 A301 RMK A01 T00771006  RH  056%=      5-min Rain = 0
KUM1 180028Z 22004KT 08/M01 A301 RMK A01 T00781006  RH  055%=      5-min Rain = 0
KUM1 180029Z 22004KT 08/M01 A301 RMK A01 T00791006  RH  055%=      5-min Rain = 0
KUM1 180030Z 22004KT 08/M01 A301 RMK A01 T00791006  RH  055%=      5-min Rain = 0
KUM1 180031Z 22004KT 08/M01 A3011 RMK A01 T00791008  RH  054%=      5-min Rain = 0
KUM1 180032Z 22004KT 08/M01 A3011 RMK A01 T00791007  RH  054%=      5-min Rain = 0
KUM1 180033Z 22003KT 08/M01 A3011 RMK A01 T00791007  RH  054%=      5-min Rain = 0
KUM1 180034Z 22003KT 08/M01 A3011 RMK A01 T00781008  RH  054%=      5-min Rain = 0
KUM1 180035Z 22003KT 08/M01 A3011 RMK A01 T00771009  RH  055%=      5-min Rain = 0
KUM1 180036Z 22003KT 08/M01 A3011 RMK A01 T00761009  RH  055%=      5-min Rain = 0
KUM1 180037Z 22003KT 07/M01 A3011 RMK A01 T00741010  RH  055%=      5-min Rain = 0
KUM1 180038Z 21003KT 07/M01 A3011 RMK A01 T00731011  RH  055%=      5-min Rain = 0
KUM1 180039Z 19003KT 07/M01 A3011 RMK A01 T00721011  RH  055%=      5-min Rain = 0
KUM1 180040Z 20004KT 07/M01 A3011 RMK A01 T00711014  RH  055%=      5-min Rain = 0
KUM1 180041Z 20004KT 07/M02 A3011 RMK A01 T00691016  RH  055%=      5-min Rain = 0
KUM1 180042Z 21004KT 07/M02 A3011 RMK A01 T00681015  RH  055%=      5-min Rain = 0
KUM1 180043Z 21004KT 07/M01 A3011 RMK A01 T00691013  RH  056%=      5-min Rain = 0
KUM1 180044Z 21004KT 07/M01 A3011 RMK A01 T00701012  RH  056%=      5-min Rain = 0
KUM1 180045Z 21003KT 07/M01 A3011 RMK A01 T00711010  RH  057%=      5-min Rain = 0
KUM1 180046Z 21003KT 07/M01 A3011 RMK A01 T00721007  RH  057%=      5-min Rain = 0
KUM1 180047Z 21003KT 07/M01 A3011 RMK A01 T00731006  RH  057%=      5-min Rain = 0
KUM1 180048Z 21003KT 08/M00 A3011 RMK A01 T00751004  RH  057%=      5-min Rain = 0
KUM1 180049Z 21003KT 08/M00 A3011 RMK A01 T00771004  RH  057%=      5-min Rain = 0
KUM1 180050Z 21003KT 08/M01 A3011 RMK A01 T00751007  RH  056%=      5-min Rain = 0
KUM1 180051Z 21003KT 07/M01 A3011 RMK A01 T00731008  RH  056%=      5-min Rain = 0
KUM1 180052Z 22004KT 07/M01 A3011 RMK A01 T00721007  RH  057%=      5-min Rain = 0
KUM1 180053Z 22004KT 07/M01 A3011 RMK A01 T00731005  RH  058%=      5-min Rain = 0
KUM1 180054Z 22004KT 08/M00 A3011 RMK A01 T00761003  RH  057%=      5-min Rain = 0
KUM1 180055Z 22004KT 08/M00 A3011 RMK A01 T00781002  RH  057%=      5-min Rain = 0
KUM1 180056Z 22004KT 08/M00 A3011 RMK A01 T00801002  RH  056%=      5-min Rain = 0
KUM1 180057Z 22004KT 08/M00 A3011 RMK A01 T00811002  RH  056%=      5-min Rain = 0
KUM1 180058Z 22004KT 08/M00 A3011 RMK A01 T00811003  RH  055%=      5-min Rain = 0
KUM1 180059Z 22004KT 08/M00 A3011 RMK A01 T00811003  RH  055%=      5-min Rain = 0
KUM1 180100Z 22004KT 08/M00 A3011 RMK A01 T00811003  RH  055%=      5-min Rain = 0
KUM1 180101Z 22004KT 08/M00 A3011 RMK A01 T00801003  RH  056%=      5-min Rain = 0
KUM1 180102Z 22004KT 08/M00 A3011 RMK A01 T00801002  RH  056%=      5-min Rain = 0
KUM1 180103Z 22004KT 08/M00 A3011 RMK A01 T00801003  RH  056%=      5-min Rain = 0
KUM1 180104Z 22004KT 08/M01 A3011 RMK A01 T00781005  RH  056%=      5-min Rain = 0
KUM1 180105Z 22004KT 08/M01 A3011 RMK A01 T00751008  RH  056%=      5-min Rain = 0
KUM1 180106Z 22004KT 07/M01 A3011 RMK A01 T00731007  RH  057%=      5-min Rain = 0
KUM1 180107Z 21004KT 07/M01 A3011 RMK A01 T00721006  RH  058%=      5-min Rain = 0
KUM1 180108Z 20003KT 07/M01 A3011 RMK A01 T00711006  RH  058%=      5-min Rain = 0
KUM1 180109Z 20003KT 07/M01 A3011 RMK A01 T00681011  RH  057%=      5-min Rain = 0
KUM1 180110Z 20004KT 06/M01 A3011 RMK A01 T00641012  RH  058%=      5-min Rain = 0
KUM1 180111Z 20004KT 06/M01 A3011 RMK A01 T00621012  RH  059%=      5-min Rain = 0
KUM1 180112Z 20004KT 06/M01 A3011 RMK A01 T00591012  RH  060%=      5-min Rain = 0
KUM1 180113Z 20004KT 06/M01 A3011 RMK A01 T00581010  RH  061%=      5-min Rain = 0
KUM1 180114Z 20004KT 06/M01 A3011 RMK A01 T00581010  RH  062%=      5-min Rain = 0
KUM1 180115Z 20003KT 06/M01 A3011 RMK A01 T00561011  RH  062%=      5-min Rain = 0
KUM1 180116Z 20003KT 06/M01 A3011 RMK A01 T00551011  RH  062%=      5-min Rain = 0
KUM1 180117Z 20003KT 06/M01 A3011 RMK A01 T00551011  RH  062%=      5-min Rain = 0
KUM1 180118Z 20003KT 06/M01 A3011 RMK A01 T00551012  RH  062%=      5-min Rain = 0
KUM1 180119Z 20003KT 06/M01 A3011 RMK A01 T00551010  RH  063%=      5-min Rain = 0
KUM1 180120Z 20003KT 06/M01 A3011 RMK A01 T00571009  RH  063%=      5-min Rain = 0
KUM1 180121Z 20003KT 06/M01 A3011 RMK A01 T00571010  RH  062%=      5-min Rain = 0
KUM1 180122Z 20003KT 06/M01 A3011 RMK A01 T00581009  RH  062%=      5-min Rain = 0
KUM1 180123Z 20003KT 06/M01 A3011 RMK A01 T00581009  RH  062%=      5-min Rain = 0
KUM1 180124Z 20004KT 06/M01 A3011 RMK A01 T00571011  RH  062%=      5-min Rain = 0
KUM1 180125Z 19004KT 06/M01 A3011 RMK A01 T00571010  RH  062%=      5-min Rain = 0
KUM1 180126Z 19004KT 06/M01 A3011 RMK A01 T00571010  RH  062%=      5-min Rain = 0
KUM1 180127Z 19005KT 06/M01 A3011 RMK A01 T00581009  RH  062%=      5-min Rain = 0
KUM1 180128Z 19005KT 06/M01 A3011 RMK A01 T00571010  RH  062%=      5-min Rain = 0
KUM1 180129Z 19005KT 06/M01 A3011 RMK A01 T00571010  RH  062%=      5-min Rain = 0
KUM1 180130Z 20005KT 06/M01 A3011 RMK A01 T00551012  RH  062%=      5-min Rain = 0
KUM1 180131Z 20006KT 05/M01 A3011 RMK A01 T00531014  RH  062%=      5-min Rain = 0
KUM1 180132Z 19006KT 05/M01 A3011 RMK A01 T00501013  RH  064%=      5-min Rain = 0
KUM1 180133Z 20006KT 05/M01 A3011 RMK A01 T00491013  RH  064%=      5-min Rain = 0
KUM1 180134Z 19006KT 05/M01 A3011 RMK A01 T00471014  RH  065%=      5-min Rain = 0
KUM1 180135Z 19007KT 05/M01 A3011 RMK A01 T00461013  RH  065%=      5-min Rain = 0
KUM1 180136Z 20007KT 05/M01 A3011 RMK A01 T00451014  RH  066%=      5-min Rain = 0
KUM1 180137Z 19006KT 04/M01 A3011 RMK A01 T00441014  RH  066%=      5-min Rain = 0
KUM1 180138Z 19006KT 04/M01 A3011 RMK A01 T00441013  RH  066%=      5-min Rain = 0
KUM1 180139Z 19006KT 04/M01 A3011 RMK A01 T00441014  RH  066%=      5-min Rain = 0
KUM1 180140Z 19006KT 04/M01 A3011 RMK A01 T00431014  RH  066%=      5-min Rain = 0
KUM1 180141Z 20006KT 04/M01 A3011 RMK A01 T00441013  RH  066%=      5-min Rain = 0
KUM1 180142Z 20006KT 04/M01 A3011 RMK A01 T00441013  RH  067%=      5-min Rain = 0
KUM1 180143Z 19006KT 05/M01 A3011 RMK A01 T00451012  RH  067%=      5-min Rain = 0
KUM1 180144Z 19006KT 05/M01 A3011 RMK A01 T00461012  RH  066%=      5-min Rain = 0
KUM1 180145Z 19006KT 05/M01 A3011 RMK A01 T00461013  RH  065%=      5-min Rain = 0
KUM1 180146Z 19006KT 05/M01 A3011 RMK A01 T00461014  RH  065%=      5-min Rain = 0
KUM1 180147Z 19006KT 05/M01 A3011 RMK A01 T00451014  RH  065%=      5-min Rain = 0
KUM1 180148Z 18006KT 05/M01 A3011 RMK A01 T00451014  RH  066%=      5-min Rain = 0
KUM1 180149Z 18005KT 04/M01 A3011 RMK A01 T00441014  RH  066%=      5-min Rain = 0
KUM1 180150Z 18005KT 04/M01 A3011 RMK A01 T00431013  RH  067%=      5-min Rain = 0
KUM1 180151Z 17006KT 04/M01 A3011 RMK A01 T00411014  RH  067%=      5-min Rain = 0
KUM1 180152Z 18005KT 04/M02 A3011 RMK A01 T00401015  RH  068%=      5-min Rain = 0
KUM1 180153Z 19004KT 04/M02 A3011 RMK A01 T00381016  RH  068%=      5-min Rain = 0
KUM1 180154Z 20004KT 04/M02 A3011 RMK A01 T00371016  RH  069%=      5-min Rain = 0
KUM1 180155Z 19004KT 04/M02 A3011 RMK A01 T00361015  RH  069%=      5-min Rain = 0
KUM1 180156Z 20005KT 04/M01 A3011 RMK A01 T00361014  RH  070%=      5-min Rain = 0
KUM1 180157Z 20005KT 04/M01 A3011 RMK A01 T00371013  RH  069%=      5-min Rain = 0
KUM1 180158Z 18006KT 04/M02 A3011 RMK A01 T00371016  RH  068%=      5-min Rain = 0
KUM1 180159Z 18007KT 04/M02 A3011 RMK A01 T00351018  RH  068%=      5-min Rain = 0
KUM1 180200Z 18007KT 03/M02 A3011 RMK A01 T00321020  RH  069%=      5-min Rain = 0
KUM1 180201Z 18007KT 03/M02 A3011 RMK A01 T00301021  RH  069%=      5-min Rain = 0
KUM1 180202Z 18006KT 03/M02 A3011 RMK A01 T00291021  RH  070%=      5-min Rain = 0
KUM1 180203Z 18006KT 03/M02 A3011 RMK A01 T00281021  RH  070%=      5-min Rain = 0
KUM1 180204Z 18006KT 03/M02 A3011 RMK A01 T00271021  RH  071%=      5-min Rain = 0
KUM1 180205Z 18006KT 03/M02 A3011 RMK A01 T00271019  RH  072%=      5-min Rain = 0
KUM1 180206Z 18006KT 03/M02 A3011 RMK A01 T00271017  RH  073%=      5-min Rain = 0
KUM1 180207Z 18006KT 03/M02 A3011 RMK A01 T00281016  RH  073%=      5-min Rain = 0
KUM1 180208Z 18006KT 03/M02 A3011 RMK A01 T00291015  RH  073%=      5-min Rain = 0
KUM1 180209Z 18006KT 03/M01 A3011 RMK A01 T00291014  RH  073%=      5-min Rain = 0
KUM1 180210Z 18006KT 03/M01 A3011 RMK A01 T00291014  RH  074%=      5-min Rain = 0
KUM1 180211Z 18007KT 03/M01 A3011 RMK A01 T00291013  RH  074%=      5-min Rain = 0
KUM1 180212Z 18007KT 03/M01 A3011 RMK A01 T00301013  RH  073%=      5-min Rain = 0
KUM1 180213Z 18007KT 03/M01 A3011 RMK A01 T00301013  RH  073%=      5-min Rain = 0
KUM1 180214Z 18007KT 03/M01 A3011 RMK A01 T00291013  RH  074%=      5-min Rain = 0
KUM1 180215Z 18007KT 03/M01 A3011 RMK A01 T00291012  RH  074%=      5-min Rain = 0
KUM1 180216Z 19007KT 03/M01 A3011 RMK A01 T00301011  RH  074%=      5-min Rain = 0
KUM1 180217Z 18007KT 03/M01 A3011 RMK A01 T00321010  RH  074%=      5-min Rain = 0
KUM1 180218Z 18007KT 03/M01 A3011 RMK A01 T00321011  RH  073%=      5-min Rain = 0
KUM1 180219Z 18007KT 03/M01 A3011 RMK A01 T00321011  RH  073%=      5-min Rain = 0
KUM1 180220Z 19007KT 03/M01 A3011 RMK A01 T00321011  RH  073%=      5-min Rain = 0
KUM1 180221Z 19007KT 03/M01 A3011 RMK A01 T00321011  RH  073%=      5-min Rain = 0
KUM1 180222Z 19008KT 03/M01 A3011 RMK A01 T00321012  RH  073%=      5-min Rain = 0
KUM1 180223Z 18007KT 03/M01 A3011 RMK A01 T00311012  RH  073%=      5-min Rain = 0
KUM1 180224Z 18007KT 03/M01 A3011 RMK A01 T00311012  RH  073%=      5-min Rain = 0
KUM1 180225Z 18007KT 03/M01 A3011 RMK A01 T00301012  RH  074%=      5-min Rain = 0
KUM1 180226Z 18007KT 03/M01 A3011 RMK A01 T00301012  RH  074%=      5-min Rain = 0
KUM1 180227Z 18007KT 03/M01 A3011 RMK A01 T00301012  RH  074%=      5-min Rain = 0
KUM1 180228Z 18006KT 03/M01 A3011 RMK A01 T00301012  RH  074%=      5-min Rain = 0
KUM1 180229Z 18006KT 03/M01 A3011 RMK A01 T00301011  RH  074%=      5-min Rain = 0
KUM1 180230Z 18006KT 03/M01 A3011 RMK A01 T00311011  RH  074%=      5-min Rain = 0
KUM1 180231Z 18006KT 03/M01 A3011 RMK A01 T00321011  RH  073%=      5-min Rain = 0
KUM1 180232Z 19006KT 03/M01 A3011 RMK A01 T00321011  RH  073%=      5-min Rain = 0
KUM1 180233Z 19006KT 03/M01 A3011 RMK A01 T00341011  RH  073%=      5-min Rain = 0
KUM1 180234Z 19006KT 04/M01 A3011 RMK A01 T00351011  RH  072%=      5-min Rain = 0
KUM1 180235Z 19006KT 04/M01 A3011 RMK A01 T00351011  RH  072%=      5-min Rain = 0
KUM1 180236Z 19006KT 04/M01 A3011 RMK A01 T00361011  RH  071%=      5-min Rain = 0
KUM1 180237Z 19006KT 04/M01 A3011 RMK A01 T00361011  RH  071%=      5-min Rain = 0
KUM1 180238Z 19006KT 04/M01 A3011 RMK A01 T00361011  RH  071%=      5-min Rain = 0
KUM1 180239Z 19006KT 04/M01 A3011 RMK A01 T00361011  RH  072%=      5-min Rain = 0
KUM1 180240Z 19006KT 04/M01 A3011 RMK A01 T00361011  RH  072%=      5-min Rain = 0
KUM1 180241Z 19006KT 04/M01 A3011 RMK A01 T00361011  RH  072%=      5-min Rain = 0
KUM1 180242Z 19006KT 04/M01 A3011 RMK A01 T00351010  RH  072%=      5-min Rain = 0
KUM1 180243Z 19006KT 04/M01 A3011 RMK A01 T00351011  RH  072%=      5-min Rain = 0
KUM1 180244Z 19006KT 04/M01 A3011 RMK A01 T00351011  RH  072%=      5-min Rain = 0
KUM1 180245Z 19006KT 04/M01 A3011 RMK A01 T00351011  RH  072%=      5-min Rain = 0
KUM1 180246Z 19006KT 03/M01 A3011 RMK A01 T00341010  RH  072%=      5-min Rain = 0
KUM1 180247Z 19006KT 03/M01 A3011 RMK A01 T00341011  RH  072%=      5-min Rain = 0
KUM1 180248Z 19006KT 03/M01 A3011 RMK A01 T00341011  RH  072%=      5-min Rain = 0
KUM1 180249Z 19007KT 03/M01 A3011 RMK A01 T00341011  RH  072%=      5-min Rain = 0
KUM1 180250Z 19007KT 03/M01 A3011 RMK A01 T00331012  RH  072%=      5-min Rain = 0
KUM1 180251Z 19007KT 03/M01 A3011 RMK A01 T00321012  RH  072%=      5-min Rain = 0
KUM1 180252Z 19006KT 03/M01 A3011 RMK A01 T00311013  RH  073%=      5-min Rain = 0
KUM1 180253Z 19006KT 03/M01 A3011 RMK A01 T00301013  RH  073%=      5-min Rain = 0
KUM1 180254Z 18006KT 03/M01 A3011 RMK A01 T00301013  RH  073%=      5-min Rain = 0
KUM1 180255Z 18006KT 03/M01 A3011 RMK A01 T00291013  RH  074%=      5-min Rain = 0
KUM1 180256Z 18006KT 03/M01 A3011 RMK A01 T00291013  RH  074%=      5-min Rain = 0
KUM1 180257Z 18006KT 03/M01 A3011 RMK A01 T00281013  RH  074%=      5-min Rain = 0
KUM1 180258Z 18006KT 03/M01 A3011 RMK A01 T00281013  RH  074%=      5-min Rain = 0
KUM1 180259Z 19006KT 03/M01 A3011 RMK A01 T00281013  RH  074%=      5-min Rain = 0
KUM1 180300Z 19006KT 03/M01 A3011 RMK A01 T00271014  RH  074%=      5-min Rain = 0
KUM1 180301Z 19006KT 03/M01 A3011 RMK A01 T00271013  RH  075%=      5-min Rain = 0
KUM1 180302Z 19006KT 03/M01 A3011 RMK A01 T00281012  RH  075%=      5-min Rain = 0
KUM1 180303Z 19006KT 03/M01 A3012 RMK A01 T00291012  RH  074%=      5-min Rain = 0
KUM1 180304Z 19006KT 03/M01 A3012 RMK A01 T00291012  RH  074%=      5-min Rain = 0
KUM1 180305Z 19006KT 03/M01 A3012 RMK A01 T00301012  RH  074%=      5-min Rain = 0
KUM1 180306Z 19006KT 03/M01 A3012 RMK A01 T00311011  RH  074%=      5-min Rain = 0
KUM1 180307Z 20006KT 03/M01 A3012 RMK A01 T00321010  RH  074%=      5-min Rain = 0
KUM1 180308Z 20006KT 03/M01 A3012 RMK A01 T00331009  RH  074%=      5-min Rain = 0
KUM1 180309Z 19006KT 03/M01 A3012 RMK A01 T00341009  RH  073%=      5-min Rain = 0
KUM1 180310Z 19006KT 04/M01 A3012 RMK A01 T00351008  RH  073%=      5-min Rain = 0
KUM1 180311Z 19005KT 04/M01 A3012 RMK A01 T00361008  RH  073%=      5-min Rain = 0
KUM1 180312Z 19005KT 04/M01 A3012 RMK A01 T00361009  RH  072%=      5-min Rain = 0
KUM1 180313Z 19005KT 04/M01 A3011 RMK A01 T00371009  RH  072%=      5-min Rain = 0
KUM1 180314Z 19006KT 04/M01 A3011 RMK A01 T00381009  RH  072%=      5-min Rain = 0
KUM1 180315Z 19006KT 04/M01 A3011 RMK A01 T00381008  RH  072%=      5-min Rain = 0
KUM1 180316Z 19005KT 04/M01 A3011 RMK A01 T00381009  RH  071%=      5-min Rain = 0
KUM1 180317Z 19005KT 04/M01 A3011 RMK A01 T00381010  RH  071%=      5-min Rain = 0
KUM1 180318Z 19006KT 04/M01 A3011 RMK A01 T00371011  RH  071%=      5-min Rain = 0
KUM1 180319Z 18006KT 04/M01 A3011 RMK A01 T00371011  RH  071%=      5-min Rain = 0
KUM1 180320Z 18006KT 04/M01 A3011 RMK A01 T00351013  RH  071%=      5-min Rain = 0
KUM1 180321Z 18006KT 03/M02 A3011 RMK A01 T00331015  RH  071%=      5-min Rain = 0
KUM1 180322Z 18006KT 03/M02 A3011 RMK A01 T00311016  RH  071%=      5-min Rain = 0
KUM1 180323Z 18006KT 03/M02 A3011 RMK A01 T00301016  RH  072%=      5-min Rain = 0
KUM1 180324Z 18005KT 03/M02 A3011 RMK A01 T00291016  RH  072%=      5-min Rain = 0
KUM1 180325Z 18005KT 03/M02 A3011 RMK A01 T00281016  RH  073%=      5-min Rain = 0
KUM1 180326Z 18005KT 03/M02 A3011 RMK A01 T00281015  RH  073%=      5-min Rain = 0
KUM1 180327Z 18005KT 03/M01 A3011 RMK A01 T00281014  RH  074%=      5-min Rain = 0
KUM1 180328Z 19006KT 03/M01 A3011 RMK A01 T00281013  RH  075%=      5-min Rain = 0
KUM1 180329Z 19006KT 03/M01 A3011 RMK A01 T00281012  RH  075%=      5-min Rain = 0
KUM1 180330Z 19006KT 03/M01 A3011 RMK A01 T00291012  RH  075%=      5-min Rain = 0
KUM1 180331Z 19006KT 03/M01 A3011 RMK A01 T00291012  RH  074%=      5-min Rain = 0
KUM1 180332Z 19006KT 03/M01 A3011 RMK A01 T00291012  RH  074%=      5-min Rain = 0
KUM1 180333Z 19006KT 03/M01 A3011 RMK A01 T00291012  RH  074%=      5-min Rain = 0
KUM1 180334Z 19006KT 03/M01 A3011 RMK A01 T00291013  RH  074%=      5-min Rain = 0
KUM1 180335Z 19006KT 03/M01 A3011 RMK A01 T00281013  RH  074%=      5-min Rain = 0
KUM1 180336Z 19006KT 03/M01 A3011 RMK A01 T00281012  RH  075%=      5-min Rain = 0
KUM1 180337Z 19006KT 03/M01 A3011 RMK A01 T00281011  RH  076%=      5-min Rain = 0
KUM1 180338Z 19006KT 03/M01 A3011 RMK A01 T00291010  RH  076%=      5-min Rain = 0
KUM1 180339Z 19006KT 03/M01 A3011 RMK A01 T00291010  RH  076%=      5-min Rain = 0
KUM1 180340Z 19007KT 03/M01 A3011 RMK A01 T00301008  RH  076%=      5-min Rain = 0
KUM1 180341Z 18006KT 03/M01 A3011 RMK A01 T00311009  RH  075%=      5-min Rain = 0
KUM1 180342Z 19006KT 03/M01 A3011 RMK A01 T00301011  RH  075%=      5-min Rain = 0
KUM1 180343Z 19006KT 03/M01 A3011 RMK A01 T00281012  RH  075%=      5-min Rain = 0
KUM1 180344Z 19006KT 03/M01 A3011 RMK A01 T00271013  RH  075%=      5-min Rain = 0
KUM1 180345Z 19006KT 03/M01 A3011 RMK A01 T00261013  RH  075%=      5-min Rain = 0
KUM1 180346Z 19007KT 03/M01 A3011 RMK A01 T00261013  RH  076%=      5-min Rain = 0
KUM1 180347Z 19007KT 03/M01 A3011 RMK A01 T00251013  RH  076%=      5-min Rain = 0
KUM1 180348Z 19007KT 03/M01 A3011 RMK A01 T00251013  RH  076%=      5-min Rain = 0
KUM1 180349Z 19007KT 03/M01 A301 RMK A01 T00251013  RH  076%=      5-min Rain = 0
KUM1 180350Z 19007KT 02/M01 A301 RMK A01 T00241012  RH  077%=      5-min Rain = 0
KUM1 180351Z 20007KT 02/M01 A301 RMK A01 T00241012  RH  077%=      5-min Rain = 0
KUM1 180352Z 20007KT 03/M01 A301 RMK A01 T00251011  RH  077%=      5-min Rain = 0
KUM1 180353Z 20007KT 03/M01 A301 RMK A01 T00251011  RH  077%=      5-min Rain = 0
KUM1 180354Z 20007KT 03/M01 A301 RMK A01 T00261011  RH  077%=      5-min Rain = 0
KUM1 180355Z 20007KT 03/M01 A301 RMK A01 T00261011  RH  076%=      5-min Rain = 0
KUM1 180356Z 20007KT 03/M01 A301 RMK A01 T00261011  RH  076%=      5-min Rain = 0
KUM1 180357Z 19006KT 03/M01 A301 RMK A01 T00261012  RH  076%=      5-min Rain = 0
KUM1 180358Z 19006KT 03/M01 A301 RMK A01 T00261012  RH  076%=      5-min Rain = 0
KUM1 180359Z 19006KT 03/M01 A301 RMK A01 T00261013  RH  076%=      5-min Rain = 0
KUM1 180400Z 19006KT 03/M01 A301 RMK A01 T00251013  RH  076%=      5-min Rain = 0
KUM1 180401Z 19006KT 03/M01 A301 RMK A01 T00251013  RH  076%=      5-min Rain = 0
KUM1 180402Z 19006KT 02/M01 A301 RMK A01 T00241013  RH  076%=      5-min Rain = 0
KUM1 180403Z 19006KT 03/M01 A301 RMK A01 T00251013  RH  076%=      5-min Rain = 0
KUM1 180404Z 19006KT 03/M01 A301 RMK A01 T00251013  RH  076%=      5-min Rain = 0
KUM1 180405Z 19006KT 03/M01 A301 RMK A01 T00251014  RH  075%=      5-min Rain = 0
KUM1 180406Z 19006KT 02/M01 A301 RMK A01 T00241014  RH  075%=      5-min Rain = 0
KUM1 180407Z 19006KT 02/M02 A301 RMK A01 T00241015  RH  076%=      5-min Rain = 0
KUM1 180408Z 19006KT 02/M02 A301 RMK A01 T00221015  RH  076%=      5-min Rain = 0
KUM1 180409Z 19007KT 02/M02 A301 RMK A01 T00211015  RH  077%=      5-min Rain = 0
KUM1 180410Z 19007KT 02/M02 A301 RMK A01 T00211015  RH  077%=      5-min Rain = 0
KUM1 180411Z 20007KT 02/M01 A301 RMK A01 T00201014  RH  078%=      5-min Rain = 0
KUM1 180412Z 20007KT 02/M01 A301 RMK A01 T00201013  RH  078%=      5-min Rain = 0
KUM1 180413Z 20007KT 02/M01 A301 RMK A01 T00211013  RH  078%=      5-min Rain = 0
KUM1 180414Z 20007KT 02/M01 A301 RMK A01 T00211012  RH  078%=      5-min Rain = 0
KUM1 180415Z 20007KT 02/M01 A301 RMK A01 T00221011  RH  079%=      5-min Rain = 0
KUM1 180416Z 20007KT 02/M01 A301 RMK A01 T00231010  RH  079%=      5-min Rain = 0
KUM1 180417Z 20007KT 02/M01 A301 RMK A01 T00241010  RH  079%=      5-min Rain = 0
KUM1 180418Z 20007KT 03/M01 A301 RMK A01 T00251009  RH  078%=      5-min Rain = 0
KUM1 180419Z 20007KT 03/M01 A301 RMK A01 T00251009  RH  078%=      5-min Rain = 0
KUM1 180420Z 20007KT 03/M01 A301 RMK A01 T00261009  RH  078%=      5-min Rain = 0
KUM1 180421Z 20007KT 03/M01 A301 RMK A01 T00261009  RH  077%=      5-min Rain = 0
KUM1 180422Z 20007KT 03/M01 A301 RMK A01 T00261010  RH  077%=      5-min Rain = 0
KUM1 180423Z 19007KT 03/M01 A301 RMK A01 T00261010  RH  077%=      5-min Rain = 0
KUM1 180424Z 20007KT 03/M01 A301 RMK A01 T00261009  RH  077%=      5-min Rain = 0
KUM1 180425Z 20008KT 03/M01 A301 RMK A01 T00261009  RH  077%=      5-min Rain = 0
KUM1 180426Z 20008KT 03/M01 A301 RMK A01 T00261009  RH  077%=      5-min Rain = 0
KUM1 180427Z 20007KT 03/M01 A301 RMK A01 T00271009  RH  077%=      5-min Rain = 0
KUM1 180428Z 20007KT 03/M01 A301 RMK A01 T00271009  RH  077%=      5-min Rain = 0
KUM1 180429Z 20007KT 03/M01 A301 RMK A01 T00281008  RH  077%=      5-min Rain = 0
KUM1 180430Z 20007KT 03/M01 A301 RMK A01 T00281009  RH  077%=      5-min Rain = 0
KUM1 180431Z 20007KT 03/M01 A301 RMK A01 T00281009  RH  077%=      5-min Rain = 0
KUM1 180432Z 21007KT 03/M01 A301 RMK A01 T00271010  RH  077%=      5-min Rain = 0
KUM1 180433Z 21007KT 03/M01 A301 RMK A01 T00271009  RH  077%=      5-min Rain = 0
KUM1 180434Z 21007KT 03/M01 A301 RMK A01 T00271009  RH  077%=      5-min Rain = 0
KUM1 180435Z 21008KT 03/M01 A301 RMK A01 T00271008  RH  078%=      5-min Rain = 0
KUM1 180436Z 21008KT 03/M01 A3009 RMK A01 T00281006  RH  078%=      5-min Rain = 0
KUM1 180437Z 21008KT 03/M01 A3009 RMK A01 T00301005  RH  078%=      5-min Rain = 0
KUM1 180438Z 21008KT 03/M00 A3009 RMK A01 T00311004  RH  078%=      5-min Rain = 0
KUM1 180439Z 21008KT 03/M00 A3009 RMK A01 T00321004  RH  078%=      5-min Rain = 0
KUM1 180440Z 21009KT 03/M00 A3009 RMK A01 T00321003  RH  077%=      5-min Rain = 0
KUM1 180441Z 21008KT 03/M00 A3009 RMK A01 T00331003  RH  077%=      5-min Rain = 0
KUM1 180442Z 21008KT 03/M00 A3009 RMK A01 T00341003  RH  077%=      5-min Rain = 0
KUM1 180443Z 21008KT 03/M00 A3009 RMK A01 T00341003  RH  076%=      5-min Rain = 0
KUM1 180444Z 21008KT 03/M00 A3009 RMK A01 T00341004  RH  076%=      5-min Rain = 0
KUM1 180445Z 21008KT 03/M01 A3009 RMK A01 T00331005  RH  077%=      5-min Rain = 0
KUM1 180446Z 21008KT 03/M00 A3009 RMK A01 T00331004  RH  077%=      5-min Rain = 0
KUM1 180447Z 21008KT 03/M01 A3009 RMK A01 T00311005  RH  077%=      5-min Rain = 0
KUM1 180448Z 21007KT 03/M01 A3009 RMK A01 T00301006  RH  077%=      5-min Rain = 0
KUM1 180449Z 21007KT 03/M01 A3008 RMK A01 T00291006  RH  077%=      5-min Rain = 0
KUM1 180450Z 21007KT 03/M01 A3008 RMK A01 T00281007  RH  078%=      5-min Rain = 0
KUM1 180451Z 21007KT 03/M01 A3008 RMK A01 T00271007  RH  078%=      5-min Rain = 0
KUM1 180452Z 21008KT 03/M01 A3008 RMK A01 T00251008  RH  079%=      5-min Rain = 0
KUM1 180453Z 21008KT 03/M01 A3008 RMK A01 T00251008  RH  079%=      5-min Rain = 0
KUM1 180454Z 21008KT 02/M01 A3008 RMK A01 T00241008  RH  080%=      5-min Rain = 0
KUM1 180455Z 21008KT 02/M01 A3008 RMK A01 T00241007  RH  080%=      5-min Rain = 0
KUM1 180456Z 21008KT 02/M01 A3008 RMK A01 T00241007  RH  080%=      5-min Rain = 0
KUM1 180457Z 21008KT 02/M01 A3008 RMK A01 T00241007  RH  080%=      5-min Rain = 0
KUM1 180458Z 22008KT 02/M01 A3008 RMK A01 T00241006  RH  080%=      5-min Rain = 0
KUM1 180459Z 22007KT 03/M01 A3008 RMK A01 T00251006  RH  080%=      5-min Rain = 0
KUM1 180500Z 22007KT 02/M01 A3008 RMK A01 T00241006  RH  081%=      5-min Rain = 0
KUM1 180501Z 22007KT 03/M01 A3008 RMK A01 T00251005  RH  081%=      5-min Rain = 0
KUM1 180502Z 22007KT 03/M00 A3008 RMK A01 T00261004  RH  081%=      5-min Rain = 0
KUM1 180503Z 22007KT 03/M01 A3008 RMK A01 T00261005  RH  080%=      5-min Rain = 0
KUM1 180504Z 22007KT 03/M00 A3008 RMK A01 T00271004  RH  080%=      5-min Rain = 0
KUM1 180505Z 22007KT 03/M00 A3008 RMK A01 T00271004  RH  080%=      5-min Rain = 0
KUM1 180506Z 22007KT 03/M01 A3008 RMK A01 T00281005  RH  079%=      5-min Rain = 0
KUM1 180507Z 23007KT 03/M01 A3008 RMK A01 T00281005  RH  079%=      5-min Rain = 0
KUM1 180508Z 23007KT 03/M00 A3008 RMK A01 T00281004  RH  079%=      5-min Rain = 0
KUM1 180509Z 23007KT 03/M00 A3008 RMK A01 T00281004  RH  079%=      5-min Rain = 0
KUM1 180510Z 23007KT 03/M00 A3007 RMK A01 T00291002  RH  080%=      5-min Rain = 0
KUM1 180511Z 23007KT 03/M00 A3007 RMK A01 T00301002  RH  080%=      5-min Rain = 0
KUM1 180512Z 23007KT 03/M00 A3007 RMK A01 T00311002  RH  079%=      5-min Rain = 0
KUM1 180513Z 23007KT 03/M00 A3007 RMK A01 T00311002  RH  079%=      5-min Rain = 0
KUM1 180514Z 23007KT 03/M00 A3007 RMK A01 T00311002  RH  079%=      5-min Rain = 0
KUM1 180515Z 23007KT 03/M00 A3007 RMK A01 T00321003  RH  078%=      5-min Rain = 0
KUM1 180516Z 23007KT 03/M00 A3007 RMK A01 T00321003  RH  078%=      5-min Rain = 0
KUM1 180517Z 23008KT 03/M00 A3007 RMK A01 T00321003  RH  078%=      5-min Rain = 0
KUM1 180518Z 23007KT 03/M00 A3007 RMK A01 T00321003  RH  078%=      5-min Rain = 0
KUM1 180519Z 23007KT 03/M00 A3007 RMK A01 T00321003  RH  077%=      5-min Rain = 0
KUM1 180520Z 23007KT 03/M00 A3007 RMK A01 T00321004  RH  077%=      5-min Rain = 0
KUM1 180521Z 23006KT 03/M01 A3007 RMK A01 T00311006  RH  077%=      5-min Rain = 0
KUM1 180522Z 23006KT 03/M01 A3007 RMK A01 T00301007  RH  077%=      5-min Rain = 0
KUM1 180523Z 23006KT 03/M01 A3007 RMK A01 T00291007  RH  077%=      5-min Rain = 0
KUM1 180524Z 23007KT 03/M01 A3007 RMK A01 T00291006  RH  078%=      5-min Rain = 0
KUM1 180525Z 23007KT 03/M01 A3007 RMK A01 T00281005  RH  078%=      5-min Rain = 0
KUM1 180526Z 23007KT 03/M01 A3007 RMK A01 T00281005  RH  079%=      5-min Rain = 0
KUM1 180527Z 23007KT 03/M00 A3007 RMK A01 T00281004  RH  079%=      5-min Rain = 0
KUM1 180528Z 23007KT 03/M00 A3007 RMK A01 T00281004  RH  079%=      5-min Rain = 0
KUM1 180529Z 23007KT 03/M00 A3007 RMK A01 T00281004  RH  079%=      5-min Rain = 0
KUM1 180530Z 23008KT 03/M00 A3006 RMK A01 T00281004  RH  079%=      5-min Rain = 0
KUM1 180531Z 23008KT 03/M01 A3006 RMK A01 T00281005  RH  079%=      5-min Rain = 0
KUM1 180532Z 23008KT 03/M01 A3006 RMK A01 T00291005  RH  079%=      5-min Rain = 0
KUM1 180533Z 23008KT 03/M01 A3006 RMK A01 T00281005  RH  079%=      5-min Rain = 0
KUM1 180534Z 24008KT 03/M01 A3006 RMK A01 T00281005  RH  079%=      5-min Rain = 0
KUM1 180535Z 24007KT 03/M01 A3006 RMK A01 T00281005  RH  079%=      5-min Rain = 0
KUM1 180536Z 23007KT 03/M01 A3006 RMK A01 T00281005  RH  079%=      5-min Rain = 0
KUM1 180537Z 23007KT 03/M01 A3006 RMK A01 T00281005  RH  079%=      5-min Rain = 0
KUM1 180538Z 24007KT 03/M01 A3006 RMK A01 T00281005  RH  079%=      5-min Rain = 0
KUM1 180539Z 24007KT 03/M01 A3006 RMK A01 T00271005  RH  079%=      5-min Rain = 0
KUM1 180540Z 24007KT 03/M01 A3006 RMK A01 T00271005  RH  079%=      5-min Rain = 0
KUM1 180541Z 24007KT 03/M01 A3006 RMK A01 T00271005  RH  079%=      5-min Rain = 0
KUM1 180542Z 24007KT 03/M01 A3006 RMK A01 T00261006  RH  079%=      5-min Rain = 0
KUM1 180543Z 25007KT 03/M01 A3006 RMK A01 T00261006  RH  079%=      5-min Rain = 0
KUM1 180544Z 24008KT 03/M01 A3006 RMK A01 T00261006  RH  079%=      5-min Rain = 0
KUM1 180545Z 24008KT 03/M01 A3006 RMK A01 T00261006  RH  080%=      5-min Rain = 0
KUM1 180546Z 24008KT 03/M01 A3006 RMK A01 T00261006  RH  079%=      5-min Rain = 0
KUM1 180547Z 24008KT 03/M01 A3006 RMK A01 T00261006  RH  079%=      5-min Rain = 0
KUM1 180548Z 24008KT 03/M01 A3006 RMK A01 T00261006  RH  079%=      5-min Rain = 0
KUM1 180549Z 24008KT 03/M01 A3006 RMK A01 T00261006  RH  079%=      5-min Rain = 0
KUM1 180550Z 24008KT 03/M01 A3006 RMK A01 T00261006  RH  079%=      5-min Rain = 0
KUM1 180551Z 24008KT 03/M01 A3006 RMK A01 T00261006  RH  079%=      5-min Rain = 0
KUM1 180552Z 24008KT 03/M01 A3006 RMK A01 T00251007  RH  079%=      5-min Rain = 0
KUM1 180553Z 23008KT 03/M01 A3006 RMK A01 T00261006  RH  080%=      5-min Rain = 0
KUM1 180554Z 23008KT 03/M01 A3006 RMK A01 T00261006  RH  080%=      5-min Rain = 0
KUM1 180555Z 24008KT 03/M01 A3006 RMK A01 T00261006  RH  080%=      5-min Rain = 0
KUM1 180556Z 23008KT 03/M01 A3006 RMK A01 T00261006  RH  080%=      5-min Rain = 0
KUM1 180557Z 24008KT 03/M01 A3005 RMK A01 T00261006  RH  080%=      5-min Rain = 0
KUM1 180558Z 23008KT 03/M01 A3005 RMK A01 T00261005  RH  080%=      5-min Rain = 0
KUM1 180559Z 24008KT 03/M01 A3005 RMK A01 T00261005  RH  080%=      5-min Rain = 0

Page generated in 0.0862 seconds.